﻿<?xml version="1.0" encoding="utf-8"?><gpx creator="Garmin Desktop App" version="1.1" xsi:schemaLocation="http://www.topografix.com/GPX/1/1 http://www.topografix.com/GPX/1/1/gpx.xsd http://www.garmin.com/xmlschemas/WaypointExtension/v1 http://www8.garmin.com/xmlschemas/WaypointExtensionv1.xsd http://www.garmin.com/xmlschemas/TrackPointExtension/v1 http://www.garmin.com/xmlschemas/TrackPointExtensionv1.xsd http://www.garmin.com/xmlschemas/GpxExtensions/v3 http://www8.garmin.com/xmlschemas/GpxExtensionsv3.xsd http://www.garmin.com/xmlschemas/ActivityExtension/v1 http://www8.garmin.com/xmlschemas/ActivityExtensionv1.xsd http://www.garmin.com/xmlschemas/AdventuresExtensions/v1 http://www8.garmin.com/xmlschemas/AdventuresExtensionv1.xsd http://www.garmin.com/xmlschemas/PressureExtension/v1 http://www.garmin.com/xmlschemas/PressureExtensionv1.xsd http://www.garmin.com/xmlschemas/TripExtensions/v1 http://www.garmin.com/xmlschemas/TripExtensionsv1.xsd http://www.garmin.com/xmlschemas/TripMetaDataExtensions/v1 http://www.garmin.com/xmlschemas/TripMetaDataExtensionsv1.xsd http://www.garmin.com/xmlschemas/ViaPointTransportationModeExtensions/v1 http://www.garmin.com/xmlschemas/ViaPointTransportationModeExtensionsv1.xsd http://www.garmin.com/xmlschemas/CreationTimeExtension/v1 http://www.garmin.com/xmlschemas/CreationTimeExtensionsv1.xsd http://www.garmin.com/xmlschemas/AccelerationExtension/v1 http://www.garmin.com/xmlschemas/AccelerationExtensionv1.xsd http://www.garmin.com/xmlschemas/PowerExtension/v1 http://www.garmin.com/xmlschemas/PowerExtensionv1.xsd http://www.garmin.com/xmlschemas/VideoExtension/v1 http://www.garmin.com/xmlschemas/VideoExtensionv1.xsd" xmlns="http://www.topografix.com/GPX/1/1" xmlns:xsi="http://www.w3.org/2001/XMLSchema-instance" xmlns:wptx1="http://www.garmin.com/xmlschemas/WaypointExtension/v1" xmlns:gpxtrx="http://www.garmin.com/xmlschemas/GpxExtensions/v3" xmlns:gpxtpx="http://www.garmin.com/xmlschemas/TrackPointExtension/v1" xmlns:gpxx="http://www.garmin.com/xmlschemas/GpxExtensions/v3" xmlns:trp="http://www.garmin.com/xmlschemas/TripExtensions/v1" xmlns:adv="http://www.garmin.com/xmlschemas/AdventuresExtensions/v1" xmlns:prs="http://www.garmin.com/xmlschemas/PressureExtension/v1" xmlns:tmd="http://www.garmin.com/xmlschemas/TripMetaDataExtensions/v1" xmlns:vptm="http://www.garmin.com/xmlschemas/ViaPointTransportationModeExtensions/v1" xmlns:ctx="http://www.garmin.com/xmlschemas/CreationTimeExtension/v1" xmlns:gpxacc="http://www.garmin.com/xmlschemas/AccelerationExtension/v1" xmlns:gpxpx="http://www.garmin.com/xmlschemas/PowerExtension/v1" xmlns:vidx1="http://www.garmin.com/xmlschemas/VideoExtension/v1">

  <metadata>
    <link href="http://www.garmin.com">
      <text>Garmin International</text>
    </link>
    <time>2025-02-10T04:24:28Z</time>
    <bounds maxlat="45.645821699872613" maxlon="7.609170908108354" minlat="45.627294508740306" minlon="7.59678840637207" />
  </metadata>

  <trk>
    <name>LagoMuffèLago-de-laCroix2025-02-09</name>
    <extensions>
      <gpxx:TrackExtension>
        <gpxx:DisplayColor>Red</gpxx:DisplayColor>
      </gpxx:TrackExtension>
      <gpxtrkx:TrackStatsExtension xmlns:gpxtrkx="http://www.garmin.com/xmlschemas/TrackStatsExtension/v1">
        <gpxtrkx:Distance>8001</gpxtrkx:Distance>
        <gpxtrkx:TotalElapsedTime>18932</gpxtrkx:TotalElapsedTime>
        <gpxtrkx:MovingTime>10467</gpxtrkx:MovingTime>
        <gpxtrkx:StoppedTime>8458</gpxtrkx:StoppedTime>
        <gpxtrkx:MovingSpeed>0.764</gpxtrkx:MovingSpeed>
        <gpxtrkx:MaxSpeed>2.717</gpxtrkx:MaxSpeed>
        <gpxtrkx:MaxElevation>2302.036</gpxtrkx:MaxElevation>
        <gpxtrkx:MinElevation>1700.043</gpxtrkx:MinElevation>
        <gpxtrkx:Ascent>602</gpxtrkx:Ascent>
        <gpxtrkx:Descent>609.867</gpxtrkx:Descent>
        <gpxtrkx:AvgAscentRate>0.04</gpxtrkx:AvgAscentRate>
        <gpxtrkx:MaxAscentRate>0.235</gpxtrkx:MaxAscentRate>
        <gpxtrkx:AvgDescentRate>0.097</gpxtrkx:AvgDescentRate>
        <gpxtrkx:MaxDescentRate>-0.409</gpxtrkx:MaxDescentRate>
      </gpxtrkx:TrackStatsExtension>
    </extensions>
    <trkseg>
      <trkpt lat="45.627643447369337" lon="7.607919322326779">
        <ele>1711.22</ele>
        <time>2025-02-09T08:27:05Z</time>
      </trkpt>
      <trkpt lat="45.627671023830771" lon="7.607787726446986">
        <ele>1711.5699999999999</ele>
        <time>2025-02-09T08:27:27Z</time>
      </trkpt>
      <trkpt lat="45.62770564109087" lon="7.607655795291066">
        <ele>1712.3199999999999</ele>
        <time>2025-02-09T08:27:40Z</time>
      </trkpt>
      <trkpt lat="45.627737324684858" lon="7.607535012066364">
        <ele>1713.24</ele>
        <time>2025-02-09T08:27:50Z</time>
      </trkpt>
      <trkpt lat="45.627757105976343" lon="7.607407942414284">
        <ele>1713.99</ele>
        <time>2025-02-09T08:28:00Z</time>
      </trkpt>
      <trkpt lat="45.627790046855807" lon="7.607291853055358">
        <ele>1715</ele>
        <time>2025-02-09T08:28:10Z</time>
      </trkpt>
      <trkpt lat="45.627812091261148" lon="7.607166962698102">
        <ele>1716.1600000000001</ele>
        <time>2025-02-09T08:28:21Z</time>
      </trkpt>
      <trkpt lat="45.627821981906891" lon="7.607042910531163">
        <ele>1717.26</ele>
        <time>2025-02-09T08:28:32Z</time>
      </trkpt>
      <trkpt lat="45.627821059897542" lon="7.606931766495109">
        <ele>1718.02</ele>
        <time>2025-02-09T08:28:41Z</time>
      </trkpt>
      <trkpt lat="45.627823658287525" lon="7.606802685186267">
        <ele>1718.6199999999999</ele>
        <time>2025-02-09T08:28:51Z</time>
      </trkpt>
      <trkpt lat="45.627823155373335" lon="7.60667972266674">
        <ele>1719.45</ele>
        <time>2025-02-09T08:29:01Z</time>
      </trkpt>
      <trkpt lat="45.627824161201715" lon="7.606565561145544">
        <ele>1720.54</ele>
        <time>2025-02-09T08:29:11Z</time>
      </trkpt>
      <trkpt lat="45.627820389345288" lon="7.606425331905484">
        <ele>1721.25</ele>
        <time>2025-02-09T08:29:23Z</time>
      </trkpt>
      <trkpt lat="45.627848468720913" lon="7.606298597529531">
        <ele>1722.04</ele>
        <time>2025-02-09T08:29:34Z</time>
      </trkpt>
      <trkpt lat="45.627921223640442" lon="7.606228105723858">
        <ele>1723.3699999999999</ele>
        <time>2025-02-09T08:29:46Z</time>
      </trkpt>
      <trkpt lat="45.627999426797032" lon="7.606227602809668">
        <ele>1724.8900000000001</ele>
        <time>2025-02-09T08:29:58Z</time>
      </trkpt>
      <trkpt lat="45.628025326877832" lon="7.60635425336659">
        <ele>1725.8900000000001</ele>
        <time>2025-02-09T08:30:09Z</time>
      </trkpt>
      <trkpt lat="45.628020716831088" lon="7.60649892501533">
        <ele>1726.23</ele>
        <time>2025-02-09T08:30:21Z</time>
      </trkpt>
      <trkpt lat="45.62800420448184" lon="7.606641501188278">
        <ele>1726.7</ele>
        <time>2025-02-09T08:30:33Z</time>
      </trkpt>
      <trkpt lat="45.628005461767316" lon="7.60678231716156">
        <ele>1727.4000000000001</ele>
        <time>2025-02-09T08:30:45Z</time>
      </trkpt>
      <trkpt lat="45.628013424575329" lon="7.606925312429667">
        <ele>1728.5</ele>
        <time>2025-02-09T08:30:57Z</time>
      </trkpt>
      <trkpt lat="45.628024656325579" lon="7.607056824490428">
        <ele>1729.3299999999999</ele>
        <time>2025-02-09T08:31:08Z</time>
      </trkpt>
      <trkpt lat="45.628028512001038" lon="7.607183894142509">
        <ele>1730.01</ele>
        <time>2025-02-09T08:31:19Z</time>
      </trkpt>
      <trkpt lat="45.62805064022541" lon="7.607322027906776">
        <ele>1731.0599999999999</ele>
        <time>2025-02-09T08:31:31Z</time>
      </trkpt>
      <trkpt lat="45.628072349354625" lon="7.607458820566535">
        <ele>1731.9300000000001</ele>
        <time>2025-02-09T08:31:42Z</time>
      </trkpt>
      <trkpt lat="45.628082575276494" lon="7.607585890218616">
        <ele>1732.45</ele>
        <time>2025-02-09T08:31:52Z</time>
      </trkpt>
      <trkpt lat="45.628079725429416" lon="7.607722850516439">
        <ele>1733.1800000000001</ele>
        <time>2025-02-09T08:32:03Z</time>
      </trkpt>
      <trkpt lat="45.628063213080168" lon="7.607858469709754">
        <ele>1733.98</ele>
        <time>2025-02-09T08:32:15Z</time>
      </trkpt>
      <trkpt lat="45.628043012693524" lon="7.607997693121433">
        <ele>1734.6199999999999</ele>
        <time>2025-02-09T08:32:26Z</time>
      </trkpt>
      <trkpt lat="45.628037983551621" lon="7.608131384477019">
        <ele>1735.24</ele>
        <time>2025-02-09T08:32:37Z</time>
      </trkpt>
      <trkpt lat="45.62804326415062" lon="7.608261220157147">
        <ele>1736.1199999999999</ele>
        <time>2025-02-09T08:32:48Z</time>
      </trkpt>
      <trkpt lat="45.628061536699533" lon="7.608387367799878">
        <ele>1736.6099999999999</ele>
        <time>2025-02-09T08:32:59Z</time>
      </trkpt>
      <trkpt lat="45.628087017685175" lon="7.608511252328754">
        <ele>1737.54</ele>
        <time>2025-02-09T08:33:10Z</time>
      </trkpt>
      <trkpt lat="45.62811316922307" lon="7.608641004189849">
        <ele>1738.46</ele>
        <time>2025-02-09T08:33:21Z</time>
      </trkpt>
      <trkpt lat="45.62813906930387" lon="7.608768828213215">
        <ele>1739.1800000000001</ele>
        <time>2025-02-09T08:33:32Z</time>
      </trkpt>
      <trkpt lat="45.628168741241097" lon="7.608893718570471">
        <ele>1739.8399999999999</ele>
        <time>2025-02-09T08:33:43Z</time>
      </trkpt>
      <trkpt lat="45.628213668242097" lon="7.609003521502018">
        <ele>1740.47</ele>
        <time>2025-02-09T08:33:53Z</time>
      </trkpt>
      <trkpt lat="45.628297235816717" lon="7.609053645282984">
        <ele>1741.1400000000001</ele>
        <time>2025-02-09T08:34:05Z</time>
      </trkpt>
      <trkpt lat="45.628353646025062" lon="7.608960773795843">
        <ele>1742.3</ele>
        <time>2025-02-09T08:34:17Z</time>
      </trkpt>
      <trkpt lat="45.62833160161972" lon="7.608823897317052">
        <ele>1742.1500000000001</ele>
        <time>2025-02-09T08:34:33Z</time>
      </trkpt>
      <trkpt lat="45.62831106595695" lon="7.608684170991182">
        <ele>1744.6500000000001</ele>
        <time>2025-02-09T08:34:46Z</time>
      </trkpt>
      <trkpt lat="45.628294972702861" lon="7.608567411080003">
        <ele>1744.99</ele>
        <time>2025-02-09T08:34:58Z</time>
      </trkpt>
      <trkpt lat="45.628293799236417" lon="7.608436653390527">
        <ele>1745.8</ele>
        <time>2025-02-09T08:35:10Z</time>
      </trkpt>
      <trkpt lat="45.628301845863461" lon="7.608305057510734">
        <ele>1747.03</ele>
        <time>2025-02-09T08:35:22Z</time>
      </trkpt>
      <trkpt lat="45.628318777307868" lon="7.608180837705731">
        <ele>1747.8900000000001</ele>
        <time>2025-02-09T08:35:34Z</time>
      </trkpt>
      <trkpt lat="45.628335876390338" lon="7.608051253482699">
        <ele>1749.0699999999999</ele>
        <time>2025-02-09T08:35:46Z</time>
      </trkpt>
      <trkpt lat="45.628346772864461" lon="7.607920579612255">
        <ele>1750.02</ele>
        <time>2025-02-09T08:35:58Z</time>
      </trkpt>
      <trkpt lat="45.628368146717548" lon="7.607792252674699">
        <ele>1750.9000000000001</ele>
        <time>2025-02-09T08:36:10Z</time>
      </trkpt>
      <trkpt lat="45.628376193344593" lon="7.607664261013269">
        <ele>1751.8399999999999</ele>
        <time>2025-02-09T08:36:22Z</time>
      </trkpt>
      <trkpt lat="45.628376360982656" lon="7.60753040201962">
        <ele>1752.76</ele>
        <time>2025-02-09T08:36:34Z</time>
      </trkpt>
      <trkpt lat="45.6283706612885" lon="7.607399895787239">
        <ele>1753.6400000000001</ele>
        <time>2025-02-09T08:36:46Z</time>
      </trkpt>
      <trkpt lat="45.628361189737916" lon="7.607273329049349">
        <ele>1754.53</ele>
        <time>2025-02-09T08:36:58Z</time>
      </trkpt>
      <trkpt lat="45.628348952159286" lon="7.607138967141509">
        <ele>1755.8099999999999</ele>
        <time>2025-02-09T08:37:10Z</time>
      </trkpt>
      <trkpt lat="45.62833302654326" lon="7.607010388746858">
        <ele>1756.8099999999999</ele>
        <time>2025-02-09T08:37:23Z</time>
      </trkpt>
      <trkpt lat="45.628305869176984" lon="7.606878876686096">
        <ele>1757.5799999999999</ele>
        <time>2025-02-09T08:37:37Z</time>
      </trkpt>
      <trkpt lat="45.628294050693512" lon="7.60675054974854">
        <ele>1758.54</ele>
        <time>2025-02-09T08:37:58Z</time>
      </trkpt>
      <trkpt lat="45.62830276787281" lon="7.606619875878096">
        <ele>1759.1900000000001</ele>
        <time>2025-02-09T08:38:09Z</time>
      </trkpt>
      <trkpt lat="45.628339312970638" lon="7.606500098481774">
        <ele>1760.05</ele>
        <time>2025-02-09T08:38:20Z</time>
      </trkpt>
      <trkpt lat="45.628397148102522" lon="7.606405634433031">
        <ele>1760.8299999999999</ele>
        <time>2025-02-09T08:38:31Z</time>
      </trkpt>
      <trkpt lat="45.628485577180982" lon="7.606329610571265">
        <ele>1761.74</ele>
        <time>2025-02-09T08:38:43Z</time>
      </trkpt>
      <trkpt lat="45.628554644063115" lon="7.606250988319516">
        <ele>1762.78</ele>
        <time>2025-02-09T08:38:56Z</time>
      </trkpt>
      <trkpt lat="45.628629997372627" lon="7.606157697737217">
        <ele>1764.24</ele>
        <time>2025-02-09T08:39:08Z</time>
      </trkpt>
      <trkpt lat="45.628685737028718" lon="7.606077985838056">
        <ele>1765.47</ele>
        <time>2025-02-09T08:39:19Z</time>
      </trkpt>
      <trkpt lat="45.628749942407012" lon="7.605968099087477">
        <ele>1766.3499999999999</ele>
        <time>2025-02-09T08:39:33Z</time>
      </trkpt>
      <trkpt lat="45.62883879058063" lon="7.605868354439735">
        <ele>1767.52</ele>
        <time>2025-02-09T08:39:45Z</time>
      </trkpt>
      <trkpt lat="45.628886232152581" lon="7.605759305879474">
        <ele>1768.8599999999999</ele>
        <time>2025-02-09T08:39:59Z</time>
      </trkpt>
      <trkpt lat="45.62889352440834" lon="7.605763664469123">
        <ele>1767.3599999999999</ele>
        <time>2025-02-09T08:41:37Z</time>
      </trkpt>
      <trkpt lat="45.628941636532545" lon="7.605825187638402">
        <ele>1768.4000000000001</ele>
        <time>2025-02-09T08:42:03Z</time>
      </trkpt>
      <trkpt lat="45.628925124183297" lon="7.605766765773296">
        <ele>1768.5899999999999</ele>
        <time>2025-02-09T08:43:22Z</time>
      </trkpt>
      <trkpt lat="45.628959741443396" lon="7.605874892324209">
        <ele>1770.9200000000001</ele>
        <time>2025-02-09T08:44:44Z</time>
      </trkpt>
      <trkpt lat="45.629054792225361" lon="7.605899786576629">
        <ele>1775.5899999999999</ele>
        <time>2025-02-09T08:45:06Z</time>
      </trkpt>
      <trkpt lat="45.629127630963922" lon="7.605826277285814">
        <ele>1780.71</ele>
        <time>2025-02-09T08:45:36Z</time>
      </trkpt>
      <trkpt lat="45.629139365628362" lon="7.605732316151261">
        <ele>1783.9000000000001</ele>
        <time>2025-02-09T08:45:59Z</time>
      </trkpt>
      <trkpt lat="45.629188399761915" lon="7.605737261474133">
        <ele>1787.54</ele>
        <time>2025-02-09T08:46:22Z</time>
      </trkpt>
      <trkpt lat="45.629254868254066" lon="7.605666518211365">
        <ele>1790.5999999999999</ele>
        <time>2025-02-09T08:46:45Z</time>
      </trkpt>
      <trkpt lat="45.629313625395298" lon="7.605734411627054">
        <ele>1794.5999999999999</ele>
        <time>2025-02-09T08:47:11Z</time>
      </trkpt>
      <trkpt lat="45.629400461912155" lon="7.605760814622045">
        <ele>1797.71</ele>
        <time>2025-02-09T08:47:31Z</time>
      </trkpt>
      <trkpt lat="45.629472713917494" lon="7.605802388861775">
        <ele>1800.7</ele>
        <time>2025-02-09T08:47:54Z</time>
      </trkpt>
      <trkpt lat="45.629571368917823" lon="7.605814961716533">
        <ele>1803.6700000000001</ele>
        <time>2025-02-09T08:48:17Z</time>
      </trkpt>
      <trkpt lat="45.62960690818727" lon="7.605921914801002">
        <ele>1803.6199999999999</ele>
        <time>2025-02-09T08:48:31Z</time>
      </trkpt>
      <trkpt lat="45.629553347826004" lon="7.606035908684135">
        <ele>1804.76</ele>
        <time>2025-02-09T08:48:51Z</time>
      </trkpt>
      <trkpt lat="45.629497356712818" lon="7.606147136539221">
        <ele>1806.0799999999999</ele>
        <time>2025-02-09T08:49:08Z</time>
      </trkpt>
      <trkpt lat="45.629439353942871" lon="7.606254173442721">
        <ele>1807.02</ele>
        <time>2025-02-09T08:49:23Z</time>
      </trkpt>
      <trkpt lat="45.62940800562501" lon="7.606378812342882">
        <ele>1808.5</ele>
        <time>2025-02-09T08:49:36Z</time>
      </trkpt>
      <trkpt lat="45.62940314412117" lon="7.606507642194629">
        <ele>1811.3900000000001</ele>
        <time>2025-02-09T08:49:56Z</time>
      </trkpt>
      <trkpt lat="45.629481682553887" lon="7.606449304148555">
        <ele>1815.3800000000001</ele>
        <time>2025-02-09T08:50:21Z</time>
      </trkpt>
      <trkpt lat="45.629543121904135" lon="7.606336316093803">
        <ele>1816.8099999999999</ele>
        <time>2025-02-09T08:50:37Z</time>
      </trkpt>
      <trkpt lat="45.629626354202628" lon="7.606279654428363">
        <ele>1818.25</ele>
        <time>2025-02-09T08:50:55Z</time>
      </trkpt>
      <trkpt lat="45.629732385277748" lon="7.606221735477448">
        <ele>1820.52</ele>
        <time>2025-02-09T08:51:13Z</time>
      </trkpt>
      <trkpt lat="45.629840595647693" lon="7.606206731870771">
        <ele>1823.0699999999999</ele>
        <time>2025-02-09T08:51:32Z</time>
      </trkpt>
      <trkpt lat="45.629943609237671" lon="7.606233889237046">
        <ele>1825.3499999999999</ele>
        <time>2025-02-09T08:51:51Z</time>
      </trkpt>
      <trkpt lat="45.630005467683077" lon="7.606229698285461">
        <ele>1827.01</ele>
        <time>2025-02-09T08:57:55Z</time>
      </trkpt>
      <trkpt lat="45.630082581192255" lon="7.60627998970449">
        <ele>1831.8199999999999</ele>
        <time>2025-02-09T08:58:18Z</time>
      </trkpt>
      <trkpt lat="45.630181739106774" lon="7.606275547295809">
        <ele>1834.99</ele>
        <time>2025-02-09T08:58:37Z</time>
      </trkpt>
      <trkpt lat="45.630276873707771" lon="7.606316618621349">
        <ele>1837.8699999999999</ele>
        <time>2025-02-09T08:58:56Z</time>
      </trkpt>
      <trkpt lat="45.630360441282392" lon="7.606222238391638">
        <ele>1839.04</ele>
        <time>2025-02-09T08:59:11Z</time>
      </trkpt>
      <trkpt lat="45.63038282096386" lon="7.606073208153248">
        <ele>1840.54</ele>
        <time>2025-02-09T08:59:29Z</time>
      </trkpt>
      <trkpt lat="45.63036723062396" lon="7.605961645022035">
        <ele>1842.3699999999999</ele>
        <time>2025-02-09T08:59:47Z</time>
      </trkpt>
      <trkpt lat="45.63044442795217" lon="7.605882268399">
        <ele>1845.8299999999999</ele>
        <time>2025-02-09T09:00:10Z</time>
      </trkpt>
      <trkpt lat="45.630543502047658" lon="7.605853183194995">
        <ele>1850.47</ele>
        <time>2025-02-09T09:00:37Z</time>
      </trkpt>
      <trkpt lat="45.63065841794014" lon="7.605766765773296">
        <ele>1852.79</ele>
        <time>2025-02-09T09:00:54Z</time>
      </trkpt>
      <trkpt lat="45.630730669945478" lon="7.605670960620046">
        <ele>1855.9200000000001</ele>
        <time>2025-02-09T09:01:16Z</time>
      </trkpt>
      <trkpt lat="45.630809040740132" lon="7.605752684175968">
        <ele>1859.3099999999999</ele>
        <time>2025-02-09T09:01:37Z</time>
      </trkpt>
      <trkpt lat="45.630866037681699" lon="7.605768190696836">
        <ele>1863.3599999999999</ele>
        <time>2025-02-09T09:02:04Z</time>
      </trkpt>
      <trkpt lat="45.630909204483032" lon="7.605751426890492">
        <ele>1866.5999999999999</ele>
        <time>2025-02-09T09:02:27Z</time>
      </trkpt>
      <trkpt lat="45.630981037393212" lon="7.605831976979971">
        <ele>1869.0699999999999</ele>
        <time>2025-02-09T09:02:46Z</time>
      </trkpt>
      <trkpt lat="45.631070472300053" lon="7.605885956436396">
        <ele>1871.2</ele>
        <time>2025-02-09T09:03:02Z</time>
      </trkpt>
      <trkpt lat="45.63114557415247" lon="7.605939181521535">
        <ele>1872.8599999999999</ele>
        <time>2025-02-09T09:03:16Z</time>
      </trkpt>
      <trkpt lat="45.631222939118743" lon="7.605922669172287">
        <ele>1876.1600000000001</ele>
        <time>2025-02-09T09:03:42Z</time>
      </trkpt>
      <trkpt lat="45.631309859454632" lon="7.605888722464442">
        <ele>1879.4200000000001</ele>
        <time>2025-02-09T09:04:06Z</time>
      </trkpt>
      <trkpt lat="45.63139334321022" lon="7.605850165709853">
        <ele>1882.47</ele>
        <time>2025-02-09T09:04:28Z</time>
      </trkpt>
      <trkpt lat="45.63148814253509" lon="7.605835748836398">
        <ele>1885.73</ele>
        <time>2025-02-09T09:04:51Z</time>
      </trkpt>
      <trkpt lat="45.631580427289009" lon="7.60576793923974">
        <ele>1889.3499999999999</ele>
        <time>2025-02-09T09:05:17Z</time>
      </trkpt>
      <trkpt lat="45.631612613797188" lon="7.605706080794334">
        <ele>1892.75</ele>
        <time>2025-02-09T09:05:42Z</time>
      </trkpt>
      <trkpt lat="45.631720656529069" lon="7.605711864307523">
        <ele>1894.29</ele>
        <time>2025-02-09T09:06:01Z</time>
      </trkpt>
      <trkpt lat="45.631803888827562" lon="7.605755617842078">
        <ele>1896.8099999999999</ele>
        <time>2025-02-09T09:06:17Z</time>
      </trkpt>
      <trkpt lat="45.631878320127726" lon="7.605703566223383">
        <ele>1900.28</ele>
        <time>2025-02-09T09:06:57Z</time>
      </trkpt>
      <trkpt lat="45.631898352876306" lon="7.60566383600235">
        <ele>1901.4200000000001</ele>
        <time>2025-02-09T09:07:45Z</time>
      </trkpt>
      <trkpt lat="45.631939256563783" lon="7.605673391371965">
        <ele>1901.71</ele>
        <time>2025-02-09T09:09:24Z</time>
      </trkpt>
      <trkpt lat="45.632005976513028" lon="7.605611197650433">
        <ele>1904.1300000000001</ele>
        <time>2025-02-09T09:09:55Z</time>
      </trkpt>
      <trkpt lat="45.63207596540451" lon="7.605677163228393">
        <ele>1906.8</ele>
        <time>2025-02-09T09:10:13Z</time>
      </trkpt>
      <trkpt lat="45.632165903225541" lon="7.60568386875093">
        <ele>1909.22</ele>
        <time>2025-02-09T09:10:29Z</time>
      </trkpt>
      <trkpt lat="45.632237568497658" lon="7.605683114379644">
        <ele>1911.3399999999999</ele>
        <time>2025-02-09T09:10:48Z</time>
      </trkpt>
      <trkpt lat="45.632322141900659" lon="7.605688059702516">
        <ele>1914.78</ele>
        <time>2025-02-09T09:11:10Z</time>
      </trkpt>
      <trkpt lat="45.632364386692643" lon="7.605669954791665">
        <ele>1917.6300000000001</ele>
        <time>2025-02-09T09:11:30Z</time>
      </trkpt>
      <trkpt lat="45.632385928183794" lon="7.605794258415699">
        <ele>1919.3099999999999</ele>
        <time>2025-02-09T09:11:46Z</time>
      </trkpt>
      <trkpt lat="45.632362877950072" lon="7.605900624766946">
        <ele>1922.96</ele>
        <time>2025-02-09T09:12:10Z</time>
      </trkpt>
      <trkpt lat="45.632435381412506" lon="7.605948485434055">
        <ele>1926.5999999999999</ele>
        <time>2025-02-09T09:12:32Z</time>
      </trkpt>
      <trkpt lat="45.632564630359411" lon="7.605952005833387">
        <ele>1928.3599999999999</ele>
        <time>2025-02-09T09:13:19Z</time>
      </trkpt>
      <trkpt lat="45.632627494633198" lon="7.606058791279793">
        <ele>1931.52</ele>
        <time>2025-02-09T09:13:39Z</time>
      </trkpt>
      <trkpt lat="45.632690358906984" lon="7.606108412146568">
        <ele>1933.74</ele>
        <time>2025-02-09T09:13:56Z</time>
      </trkpt>
      <trkpt lat="45.632754899561405" lon="7.606138167902827">
        <ele>1937.6800000000001</ele>
        <time>2025-02-09T09:14:20Z</time>
      </trkpt>
      <trkpt lat="45.6328328512609" lon="7.60622626170516">
        <ele>1940.47</ele>
        <time>2025-02-09T09:14:40Z</time>
      </trkpt>
      <trkpt lat="45.6329036783427" lon="7.606268925592303">
        <ele>1944.25</ele>
        <time>2025-02-09T09:15:05Z</time>
      </trkpt>
      <trkpt lat="45.632936703041196" lon="7.606174713000655">
        <ele>1947.8699999999999</ele>
        <time>2025-02-09T09:15:28Z</time>
      </trkpt>
      <trkpt lat="45.633012810721993" lon="7.606244869530201">
        <ele>1950.8199999999999</ele>
        <time>2025-02-09T09:15:48Z</time>
      </trkpt>
      <trkpt lat="45.633097551763058" lon="7.606323910877109">
        <ele>1952.97</ele>
        <time>2025-02-09T09:16:07Z</time>
      </trkpt>
      <trkpt lat="45.633129067718983" lon="7.606232380494475">
        <ele>1955.9200000000001</ele>
        <time>2025-02-09T09:16:33Z</time>
      </trkpt>
      <trkpt lat="45.63323643989861" lon="7.60624386370182">
        <ele>1959.4100000000001</ele>
        <time>2025-02-09T09:16:58Z</time>
      </trkpt>
      <trkpt lat="45.633247420191765" lon="7.606187872588635">
        <ele>1963.02</ele>
        <time>2025-02-09T09:17:21Z</time>
      </trkpt>
      <trkpt lat="45.633335178717971" lon="7.606185358017683">
        <ele>1966.5999999999999</ele>
        <time>2025-02-09T09:17:44Z</time>
      </trkpt>
      <trkpt lat="45.633435593917966" lon="7.606167756021023">
        <ele>1969.51</ele>
        <time>2025-02-09T09:18:06Z</time>
      </trkpt>
      <trkpt lat="45.63351689837873" lon="7.606230033561587">
        <ele>1970.6600000000001</ele>
        <time>2025-02-09T09:18:20Z</time>
      </trkpt>
      <trkpt lat="45.633613122627139" lon="7.606255263090134">
        <ele>1972.26</ele>
        <time>2025-02-09T09:18:37Z</time>
      </trkpt>
      <trkpt lat="45.63370113261044" lon="7.606265908107162">
        <ele>1974.3599999999999</ele>
        <time>2025-02-09T09:18:55Z</time>
      </trkpt>
      <trkpt lat="45.633783610537648" lon="7.606261298060417">
        <ele>1976.4200000000001</ele>
        <time>2025-02-09T09:19:13Z</time>
      </trkpt>
      <trkpt lat="45.633857706561685" lon="7.606190303340554">
        <ele>1979.1099999999999</ele>
        <time>2025-02-09T09:19:33Z</time>
      </trkpt>
      <trkpt lat="45.633888887241483" lon="7.606078488752246">
        <ele>1982.27</ele>
        <time>2025-02-09T09:19:53Z</time>
      </trkpt>
      <trkpt lat="45.633884109556675" lon="7.605951502919197">
        <ele>1984.95</ele>
        <time>2025-02-09T09:20:13Z</time>
      </trkpt>
      <trkpt lat="45.63386483117938" lon="7.605826864019036">
        <ele>1987.9000000000001</ele>
        <time>2025-02-09T09:20:36Z</time>
      </trkpt>
      <trkpt lat="45.633853012695909" lon="7.605693759396672">
        <ele>1991.26</ele>
        <time>2025-02-09T09:20:58Z</time>
      </trkpt>
      <trkpt lat="45.633837757632136" lon="7.605556882917881">
        <ele>1994.3</ele>
        <time>2025-02-09T09:21:20Z</time>
      </trkpt>
      <trkpt lat="45.633828034624457" lon="7.605420593172312">
        <ele>1996.0599999999999</ele>
        <time>2025-02-09T09:21:36Z</time>
      </trkpt>
      <trkpt lat="45.633837170898914" lon="7.60531640611589">
        <ele>1997.1900000000001</ele>
        <time>2025-02-09T09:22:30Z</time>
      </trkpt>
      <trkpt lat="45.633825352415442" lon="7.605195622891188">
        <ele>1996.3900000000001</ele>
        <time>2025-02-09T09:24:12Z</time>
      </trkpt>
      <trkpt lat="45.63383306376636" lon="7.60508238337934">
        <ele>1998.6300000000001</ele>
        <time>2025-02-09T09:26:51Z</time>
      </trkpt>
      <trkpt lat="45.633833231404424" lon="7.604944668710232">
        <ele>2000.1199999999999</ele>
        <time>2025-02-09T09:27:05Z</time>
      </trkpt>
      <trkpt lat="45.633853683248162" lon="7.604811144992709">
        <ele>2002.05</ele>
        <time>2025-02-09T09:27:21Z</time>
      </trkpt>
      <trkpt lat="45.633908584713936" lon="7.604697234928608">
        <ele>2002.96</ele>
        <time>2025-02-09T09:27:35Z</time>
      </trkpt>
      <trkpt lat="45.633966168388724" lon="7.604582067579031">
        <ele>2003.48</ele>
        <time>2025-02-09T09:27:47Z</time>
      </trkpt>
      <trkpt lat="45.634032133966684" lon="7.604471007362008">
        <ele>2004.03</ele>
        <time>2025-02-09T09:28:00Z</time>
      </trkpt>
      <trkpt lat="45.634081335738301" lon="7.604355337098241">
        <ele>2004.5</ele>
        <time>2025-02-09T09:28:12Z</time>
      </trkpt>
      <trkpt lat="45.634118551388383" lon="7.604239080101252">
        <ele>2005.23</ele>
        <time>2025-02-09T09:28:24Z</time>
      </trkpt>
      <trkpt lat="45.634159874171019" lon="7.604114944115281">
        <ele>2006.25</ele>
        <time>2025-02-09T09:28:39Z</time>
      </trkpt>
      <trkpt lat="45.634200861677527" lon="7.603978822007775">
        <ele>2008.1400000000001</ele>
        <time>2025-02-09T09:28:55Z</time>
      </trkpt>
      <trkpt lat="45.634261798113585" lon="7.603854853659868">
        <ele>2010.1099999999999</ele>
        <time>2025-02-09T09:29:10Z</time>
      </trkpt>
      <trkpt lat="45.63432072289288" lon="7.603748152032495">
        <ele>2011.6800000000001</ele>
        <time>2025-02-09T09:29:24Z</time>
      </trkpt>
      <trkpt lat="45.634377300739288" lon="7.603657795116305">
        <ele>2012.4100000000001</ele>
        <time>2025-02-09T09:29:37Z</time>
      </trkpt>
      <trkpt lat="45.634448630735278" lon="7.603577580302954">
        <ele>2014.76</ele>
        <time>2025-02-09T09:29:53Z</time>
      </trkpt>
      <trkpt lat="45.634515015408397" lon="7.603500885888934">
        <ele>2017.9100000000001</ele>
        <time>2025-02-09T09:30:12Z</time>
      </trkpt>
      <trkpt lat="45.634564384818077" lon="7.603549333289266">
        <ele>2022.0799999999999</ele>
        <time>2025-02-09T09:30:39Z</time>
      </trkpt>
      <trkpt lat="45.634628171101213" lon="7.603451851755381">
        <ele>2025.22</ele>
        <time>2025-02-09T09:31:02Z</time>
      </trkpt>
      <trkpt lat="45.634707463905215" lon="7.603363925591111">
        <ele>2027.98</ele>
        <time>2025-02-09T09:31:22Z</time>
      </trkpt>
      <trkpt lat="45.634767981246114" lon="7.603280274197459">
        <ele>2030.3499999999999</ele>
        <time>2025-02-09T09:31:42Z</time>
      </trkpt>
      <trkpt lat="45.634783403947949" lon="7.603151695802808">
        <ele>2031.99</ele>
        <time>2025-02-09T09:32:00Z</time>
      </trkpt>
      <trkpt lat="45.634852973744273" lon="7.603072402998805">
        <ele>2034.6099999999999</ele>
        <time>2025-02-09T09:32:21Z</time>
      </trkpt>
      <trkpt lat="45.634926650673151" lon="7.602993948385119">
        <ele>2037.01</ele>
        <time>2025-02-09T09:32:38Z</time>
      </trkpt>
      <trkpt lat="45.635021366178989" lon="7.602969976142049">
        <ele>2040.1900000000001</ele>
        <time>2025-02-09T09:33:00Z</time>
      </trkpt>
      <trkpt lat="45.63510837033391" lon="7.602903256192803">
        <ele>2042.4100000000001</ele>
        <time>2025-02-09T09:33:18Z</time>
      </trkpt>
      <trkpt lat="45.635181460529566" lon="7.602936280891299">
        <ele>2044.6400000000001</ele>
        <time>2025-02-09T09:34:01Z</time>
      </trkpt>
      <trkpt lat="45.635191351175308" lon="7.603072235360742">
        <ele>2046.3499999999999</ele>
        <time>2025-02-09T09:34:18Z</time>
      </trkpt>
      <trkpt lat="45.635190512984991" lon="7.603204837068915">
        <ele>2048.75</ele>
        <time>2025-02-09T09:34:35Z</time>
      </trkpt>
      <trkpt lat="45.63519679941237" lon="7.6033438090235">
        <ele>2050.46</ele>
        <time>2025-02-09T09:34:52Z</time>
      </trkpt>
      <trkpt lat="45.635198308154941" lon="7.603484205901623">
        <ele>2052.96</ele>
        <time>2025-02-09T09:35:10Z</time>
      </trkpt>
      <trkpt lat="45.635187663137913" lon="7.603621501475573">
        <ele>2055.1399999999999</ele>
        <time>2025-02-09T09:35:28Z</time>
      </trkpt>
      <trkpt lat="45.635199565440416" lon="7.603754689916968">
        <ele>2058.3899999999999</ele>
        <time>2025-02-09T09:35:50Z</time>
      </trkpt>
      <trkpt lat="45.635185316205025" lon="7.603883435949683">
        <ele>2060.1399999999999</ele>
        <time>2025-02-09T09:36:07Z</time>
      </trkpt>
      <trkpt lat="45.635193446651101" lon="7.604012349620462">
        <ele>2062.29</ele>
        <time>2025-02-09T09:36:25Z</time>
      </trkpt>
      <trkpt lat="45.63518556766212" lon="7.604143442586064">
        <ele>2064.23</ele>
        <time>2025-02-09T09:36:42Z</time>
      </trkpt>
      <trkpt lat="45.635204762220383" lon="7.604269003495574">
        <ele>2066.1300000000001</ele>
        <time>2025-02-09T09:37:00Z</time>
      </trkpt>
      <trkpt lat="45.635288916528225" lon="7.604276547208428">
        <ele>2068.6399999999999</ele>
        <time>2025-02-09T09:37:18Z</time>
      </trkpt>
      <trkpt lat="45.635374831035733" lon="7.604267578572035">
        <ele>2071.5</ele>
        <time>2025-02-09T09:37:37Z</time>
      </trkpt>
      <trkpt lat="45.635457057505846" lon="7.604266488924623">
        <ele>2074.79</ele>
        <time>2025-02-09T09:38:00Z</time>
      </trkpt>
      <trkpt lat="45.635539116337895" lon="7.60425416752696">
        <ele>2077.9299999999998</ele>
        <time>2025-02-09T09:38:23Z</time>
      </trkpt>
      <trkpt lat="45.635623354464769" lon="7.604229608550668">
        <ele>2080.5599999999999</ele>
        <time>2025-02-09T09:38:43Z</time>
      </trkpt>
      <trkpt lat="45.635711280629039" lon="7.604198595508933">
        <ele>2083.04</ele>
        <time>2025-02-09T09:39:02Z</time>
      </trkpt>
      <trkpt lat="45.635802811011672" lon="7.604214353486896">
        <ele>2084.3299999999999</ele>
        <time>2025-02-09T09:39:18Z</time>
      </trkpt>
      <trkpt lat="45.63588579185307" lon="7.604179484769702">
        <ele>2085.5500000000002</ele>
        <time>2025-02-09T09:39:32Z</time>
      </trkpt>
      <trkpt lat="45.635978914797306" lon="7.604211419820786">
        <ele>2085.5999999999999</ele>
        <time>2025-02-09T09:39:44Z</time>
      </trkpt>
      <trkpt lat="45.636068601161242" lon="7.604249473661184">
        <ele>2085.5300000000002</ele>
        <time>2025-02-09T09:39:56Z</time>
      </trkpt>
      <trkpt lat="45.636156275868416" lon="7.604302447289228">
        <ele>2085.4299999999998</ele>
        <time>2025-02-09T09:40:07Z</time>
      </trkpt>
      <trkpt lat="45.636243782937527" lon="7.604319546371698">
        <ele>2085.6199999999999</ele>
        <time>2025-02-09T09:40:18Z</time>
      </trkpt>
      <trkpt lat="45.636334223672748" lon="7.604332286864519">
        <ele>2085.6100000000001</ele>
        <time>2025-02-09T09:41:01Z</time>
      </trkpt>
      <trkpt lat="45.636410331353545" lon="7.604405209422112">
        <ele>2085.8400000000001</ele>
        <time>2025-02-09T09:41:12Z</time>
      </trkpt>
      <trkpt lat="45.63650093972683" lon="7.604455836117268">
        <ele>2085.8400000000001</ele>
        <time>2025-02-09T09:41:23Z</time>
      </trkpt>
      <trkpt lat="45.636581405997276" lon="7.60451409034431">
        <ele>2085.9400000000001</ele>
        <time>2025-02-09T09:41:33Z</time>
      </trkpt>
      <trkpt lat="45.636661117896438" lon="7.60458005592227">
        <ele>2085.54</ele>
        <time>2025-02-09T09:41:43Z</time>
      </trkpt>
      <trkpt lat="45.636706296354532" lon="7.60460109449923">
        <ele>2085.6500000000001</ele>
        <time>2025-02-09T09:43:06Z</time>
      </trkpt>
      <trkpt lat="45.636764382943511" lon="7.604490118101239">
        <ele>2087.3299999999999</ele>
        <time>2025-02-09T09:44:43Z</time>
      </trkpt>
      <trkpt lat="45.636848453432322" lon="7.604432199150324">
        <ele>2089.5300000000002</ele>
        <time>2025-02-09T09:45:01Z</time>
      </trkpt>
      <trkpt lat="45.636944426223636" lon="7.604470001533628">
        <ele>2089.9099999999999</ele>
        <time>2025-02-09T09:46:13Z</time>
      </trkpt>
      <trkpt lat="45.637027490884066" lon="7.604420213028789">
        <ele>2090.8400000000001</ele>
        <time>2025-02-09T09:46:26Z</time>
      </trkpt>
      <trkpt lat="45.637111645191908" lon="7.604371849447489">
        <ele>2092.27</ele>
        <time>2025-02-09T09:46:38Z</time>
      </trkpt>
      <trkpt lat="45.637199906632304" lon="7.604328766465187">
        <ele>2093.8800000000001</ele>
        <time>2025-02-09T09:46:51Z</time>
      </trkpt>
      <trkpt lat="45.637297136709094" lon="7.604314768686891">
        <ele>2095.0999999999999</ele>
        <time>2025-02-09T09:47:06Z</time>
      </trkpt>
      <trkpt lat="45.637386655434966" lon="7.604267159476876">
        <ele>2096.9899999999998</ele>
        <time>2025-02-09T09:47:22Z</time>
      </trkpt>
      <trkpt lat="45.637451615184546" lon="7.604188369587064">
        <ele>2098.3600000000001</ele>
        <time>2025-02-09T09:47:53Z</time>
      </trkpt>
      <trkpt lat="45.637508109211922" lon="7.604091558605433">
        <ele>2098.3699999999999</ele>
        <time>2025-02-09T09:48:07Z</time>
      </trkpt>
      <trkpt lat="45.63755638897419" lon="7.603977229446173">
        <ele>2098.4899999999998</ele>
        <time>2025-02-09T09:49:04Z</time>
      </trkpt>
      <trkpt lat="45.637609111145139" lon="7.603869773447514">
        <ele>2098.5999999999999</ele>
        <time>2025-02-09T09:49:14Z</time>
      </trkpt>
      <trkpt lat="45.637682285159826" lon="7.603802802041173">
        <ele>2099.75</ele>
        <time>2025-02-09T09:49:25Z</time>
      </trkpt>
      <trkpt lat="45.637765601277351" lon="7.603748319670558">
        <ele>2100.8800000000001</ele>
        <time>2025-02-09T09:49:36Z</time>
      </trkpt>
      <trkpt lat="45.6378442235291" lon="7.60367757640779">
        <ele>2102.5900000000001</ele>
        <time>2025-02-09T09:49:49Z</time>
      </trkpt>
      <trkpt lat="45.637917146086693" lon="7.603584788739681">
        <ele>2103.1700000000001</ele>
        <time>2025-02-09T09:50:01Z</time>
      </trkpt>
      <trkpt lat="45.63798688352108" lon="7.603492420166731">
        <ele>2104.9899999999998</ele>
        <time>2025-02-09T09:50:15Z</time>
      </trkpt>
      <trkpt lat="45.63805821351707" lon="7.60341128334403">
        <ele>2106.98</ele>
        <time>2025-02-09T09:50:33Z</time>
      </trkpt>
      <trkpt lat="45.638094926252961" lon="7.60328765027225">
        <ele>2109.4000000000001</ele>
        <time>2025-02-09T09:50:50Z</time>
      </trkpt>
      <trkpt lat="45.638129040598869" lon="7.603170722723007">
        <ele>2112.1399999999999</ele>
        <time>2025-02-09T09:51:10Z</time>
      </trkpt>
      <trkpt lat="45.63818134367466" lon="7.603093273937702">
        <ele>2114.5900000000001</ele>
        <time>2025-02-09T09:51:27Z</time>
      </trkpt>
      <trkpt lat="45.638257618993521" lon="7.603023452684283">
        <ele>2115.9899999999998</ele>
        <time>2025-02-09T09:51:41Z</time>
      </trkpt>
      <trkpt lat="45.638313107192516" lon="7.602915242314339">
        <ele>2117.6599999999999</ele>
        <time>2025-02-09T09:51:57Z</time>
      </trkpt>
      <trkpt lat="45.638349568471313" lon="7.60278582572937">
        <ele>2119.3699999999999</ele>
        <time>2025-02-09T09:52:11Z</time>
      </trkpt>
      <trkpt lat="45.638406984508038" lon="7.602671999484301">
        <ele>2119.6900000000001</ele>
        <time>2025-02-09T09:52:23Z</time>
      </trkpt>
      <trkpt lat="45.638470351696014" lon="7.602574601769447">
        <ele>2120.54</ele>
        <time>2025-02-09T09:52:37Z</time>
      </trkpt>
      <trkpt lat="45.63854587264359" lon="7.602498661726713">
        <ele>2121.3499999999999</ele>
        <time>2025-02-09T09:52:49Z</time>
      </trkpt>
      <trkpt lat="45.638581831008196" lon="7.602397073060274">
        <ele>2122.4200000000001</ele>
        <time>2025-02-09T09:53:06Z</time>
      </trkpt>
      <trkpt lat="45.638575125485659" lon="7.602261705324054">
        <ele>2123.5700000000002</ele>
        <time>2025-02-09T09:53:22Z</time>
      </trkpt>
      <trkpt lat="45.638576466590166" lon="7.602134300395846">
        <ele>2125.98</ele>
        <time>2025-02-09T09:53:39Z</time>
      </trkpt>
      <trkpt lat="45.638616532087326" lon="7.602018546313047">
        <ele>2127.5</ele>
        <time>2025-02-09T09:53:54Z</time>
      </trkpt>
      <trkpt lat="45.638622650876641" lon="7.601881502196193">
        <ele>2129.46</ele>
        <time>2025-02-09T09:54:10Z</time>
      </trkpt>
      <trkpt lat="45.638646455481648" lon="7.601765664294362">
        <ele>2131.1100000000001</ele>
        <time>2025-02-09T09:54:25Z</time>
      </trkpt>
      <trkpt lat="45.638712169602513" lon="7.601682180538774">
        <ele>2132.0300000000002</ele>
        <time>2025-02-09T09:59:59Z</time>
      </trkpt>
      <trkpt lat="45.638736728578806" lon="7.601663237437606">
        <ele>2133.3000000000002</ele>
        <time>2025-02-09T10:02:02Z</time>
      </trkpt>
      <trkpt lat="45.638790456578135" lon="7.601570449769497">
        <ele>2135.27</ele>
        <time>2025-02-09T10:02:17Z</time>
      </trkpt>
      <trkpt lat="45.638871761038899" lon="7.60150364600122">
        <ele>2137.9200000000001</ele>
        <time>2025-02-09T10:02:34Z</time>
      </trkpt>
      <trkpt lat="45.638915095478296" lon="7.601382276043296">
        <ele>2141.0999999999999</ele>
        <time>2025-02-09T10:02:54Z</time>
      </trkpt>
      <trkpt lat="45.638971924781799" lon="7.601278424263001">
        <ele>2143.4299999999998</ele>
        <time>2025-02-09T10:03:13Z</time>
      </trkpt>
      <trkpt lat="45.639044176787138" lon="7.601207261905074">
        <ele>2145.8299999999999</ele>
        <time>2025-02-09T10:03:34Z</time>
      </trkpt>
      <trkpt lat="45.63912246376276" lon="7.601123191416264">
        <ele>2148.1300000000001</ele>
        <time>2025-02-09T10:03:56Z</time>
      </trkpt>
      <trkpt lat="45.639203265309334" lon="7.601051274687052">
        <ele>2150.8600000000001</ele>
        <time>2025-02-09T10:04:18Z</time>
      </trkpt>
      <trkpt lat="45.639268141239882" lon="7.600956726819277">
        <ele>2153.3699999999999</ele>
        <time>2025-02-09T10:04:42Z</time>
      </trkpt>
      <trkpt lat="45.639346176758409" lon="7.600881792604923">
        <ele>2155.9200000000001</ele>
        <time>2025-02-09T10:05:02Z</time>
      </trkpt>
      <trkpt lat="45.639386912807822" lon="7.600774671882391">
        <ele>2157.9699999999998</ele>
        <time>2025-02-09T10:05:21Z</time>
      </trkpt>
      <trkpt lat="45.639463188126683" lon="7.60069009847939">
        <ele>2158.3299999999999</ele>
        <time>2025-02-09T10:05:35Z</time>
      </trkpt>
      <trkpt lat="45.639519765973091" lon="7.600585827603936">
        <ele>2159.6399999999999</ele>
        <time>2025-02-09T10:05:49Z</time>
      </trkpt>
      <trkpt lat="45.639591682702303" lon="7.60052103549242">
        <ele>2161.8800000000001</ele>
        <time>2025-02-09T10:06:06Z</time>
      </trkpt>
      <trkpt lat="45.639629568904638" lon="7.600403605028987">
        <ele>2164.5799999999999</ele>
        <time>2025-02-09T10:06:25Z</time>
      </trkpt>
      <trkpt lat="45.639662509784102" lon="7.600285755470395">
        <ele>2167.0599999999999</ele>
        <time>2025-02-09T10:06:46Z</time>
      </trkpt>
      <trkpt lat="45.639728056266904" lon="7.600197326391935">
        <ele>2168.8400000000001</ele>
        <time>2025-02-09T10:07:03Z</time>
      </trkpt>
      <trkpt lat="45.639801733195782" lon="7.60013060644269">
        <ele>2170.29</ele>
        <time>2025-02-09T10:07:19Z</time>
      </trkpt>
      <trkpt lat="45.639827381819487" lon="7.600007727742195">
        <ele>2172.3400000000001</ele>
        <time>2025-02-09T10:07:36Z</time>
      </trkpt>
      <trkpt lat="45.639895526692271" lon="7.599943270906806">
        <ele>2173.9000000000001</ele>
        <time>2025-02-09T10:07:53Z</time>
      </trkpt>
      <trkpt lat="45.639982614666224" lon="7.599913096055389">
        <ele>2175.23</ele>
        <time>2025-02-09T10:08:08Z</time>
      </trkpt>
      <trkpt lat="45.640068361535668" lon="7.599870432168245">
        <ele>2176.7800000000002</ele>
        <time>2025-02-09T10:08:22Z</time>
      </trkpt>
      <trkpt lat="45.640149330720305" lon="7.599808992817998">
        <ele>2177.8299999999999</ele>
        <time>2025-02-09T10:08:35Z</time>
      </trkpt>
      <trkpt lat="45.640223007649183" lon="7.599746380001307">
        <ele>2179.1199999999999</ele>
        <time>2025-02-09T10:08:48Z</time>
      </trkpt>
      <trkpt lat="45.64021403901279" lon="7.599604055285454">
        <ele>2179.0799999999999</ele>
        <time>2025-02-09T10:11:24Z</time>
      </trkpt>
      <trkpt lat="45.640217307955027" lon="7.599467765539885">
        <ele>2180.0599999999999</ele>
        <time>2025-02-09T10:11:35Z</time>
      </trkpt>
      <trkpt lat="45.640213703736663" lon="7.599332900717855">
        <ele>2181.5599999999999</ele>
        <time>2025-02-09T10:11:46Z</time>
      </trkpt>
      <trkpt lat="45.64023700542748" lon="7.599207423627377">
        <ele>2183.6900000000001</ele>
        <time>2025-02-09T10:12:00Z</time>
      </trkpt>
      <trkpt lat="45.640304312109947" lon="7.599129471927881">
        <ele>2186.48</ele>
        <time>2025-02-09T10:12:16Z</time>
      </trkpt>
      <trkpt lat="45.640382096171379" lon="7.599061410874128">
        <ele>2189.46</ele>
        <time>2025-02-09T10:12:35Z</time>
      </trkpt>
      <trkpt lat="45.640450157225132" lon="7.598979854956269">
        <ele>2191.6799999999998</ele>
        <time>2025-02-09T10:12:54Z</time>
      </trkpt>
      <trkpt lat="45.640495587140322" lon="7.598881451413035">
        <ele>2194.0100000000002</ele>
        <time>2025-02-09T10:13:13Z</time>
      </trkpt>
      <trkpt lat="45.640569431707263" lon="7.598806852474809">
        <ele>2195.7199999999998</ele>
        <time>2025-02-09T10:13:31Z</time>
      </trkpt>
      <trkpt lat="45.640634642913938" lon="7.598728062584996">
        <ele>2197.4299999999998</ele>
        <time>2025-02-09T10:13:47Z</time>
      </trkpt>
      <trkpt lat="45.640688370913267" lon="7.598628988489509">
        <ele>2199.3200000000002</ele>
        <time>2025-02-09T10:14:04Z</time>
      </trkpt>
      <trkpt lat="45.640716450288892" lon="7.598500326275826">
        <ele>2200.2600000000002</ele>
        <time>2025-02-09T10:14:19Z</time>
      </trkpt>
      <trkpt lat="45.640729609876871" lon="7.598369484767318">
        <ele>2201.0300000000002</ele>
        <time>2025-02-09T10:14:32Z</time>
      </trkpt>
      <trkpt lat="45.640741931274533" lon="7.598236380144954">
        <ele>2202.0300000000002</ele>
        <time>2025-02-09T10:14:45Z</time>
      </trkpt>
      <trkpt lat="45.640762383118272" lon="7.598111070692539">
        <ele>2202.6599999999999</ele>
        <time>2025-02-09T10:14:57Z</time>
      </trkpt>
      <trkpt lat="45.640787864103913" lon="7.597987353801727">
        <ele>2204.6300000000001</ele>
        <time>2025-02-09T10:15:12Z</time>
      </trkpt>
      <trkpt lat="45.640799766406417" lon="7.597859865054488">
        <ele>2206.0700000000002</ele>
        <time>2025-02-09T10:15:26Z</time>
      </trkpt>
      <trkpt lat="45.640821224078536" lon="7.597736986353993">
        <ele>2207.4499999999998</ele>
        <time>2025-02-09T10:15:40Z</time>
      </trkpt>
      <trkpt lat="45.640848046168685" lon="7.597620729357004">
        <ele>2210.0599999999999</ele>
        <time>2025-02-09T10:15:59Z</time>
      </trkpt>
      <trkpt lat="45.640896409749985" lon="7.597512435168028">
        <ele>2212.5</ele>
        <time>2025-02-09T10:16:20Z</time>
      </trkpt>
      <trkpt lat="45.640907306224108" lon="7.597388466820121">
        <ele>2214.9000000000001</ele>
        <time>2025-02-09T10:16:41Z</time>
      </trkpt>
      <trkpt lat="45.640972601249814" lon="7.59730632416904">
        <ele>2216.7600000000002</ele>
        <time>2025-02-09T10:16:58Z</time>
      </trkpt>
      <trkpt lat="45.641031442210078" lon="7.597225187346339">
        <ele>2219.2399999999998</ele>
        <time>2025-02-09T10:17:17Z</time>
      </trkpt>
      <trkpt lat="45.641082571819425" lon="7.597137177363038">
        <ele>2221.21</ele>
        <time>2025-02-09T10:17:36Z</time>
      </trkpt>
      <trkpt lat="45.641144346445799" lon="7.597053106874228">
        <ele>2223.71</ele>
        <time>2025-02-09T10:17:54Z</time>
      </trkpt>
      <trkpt lat="45.641203606501222" lon="7.596963169053197">
        <ele>2226.1399999999999</ele>
        <time>2025-02-09T10:18:15Z</time>
      </trkpt>
      <trkpt lat="45.641264040023088" lon="7.596868285909295">
        <ele>2229.04</ele>
        <time>2025-02-09T10:18:37Z</time>
      </trkpt>
      <trkpt lat="45.641304859891534" lon="7.59678840637207">
        <ele>2231.0300000000002</ele>
        <time>2025-02-09T10:20:32Z</time>
      </trkpt>
      <trkpt lat="45.64139504916966" lon="7.596845151856542">
        <ele>2230.8299999999999</ele>
        <time>2025-02-09T10:22:28Z</time>
      </trkpt>
      <trkpt lat="45.641479874029756" lon="7.596896281465888">
        <ele>2232.02</ele>
        <time>2025-02-09T10:22:43Z</time>
      </trkpt>
      <trkpt lat="45.641553299501538" lon="7.596958978101611">
        <ele>2234.02</ele>
        <time>2025-02-09T10:22:59Z</time>
      </trkpt>
      <trkpt lat="45.641623791307211" lon="7.597022512927651">
        <ele>2235.4299999999998</ele>
        <time>2025-02-09T10:23:27Z</time>
      </trkpt>
      <trkpt lat="45.641702665016055" lon="7.597088310867548">
        <ele>2236.98</ele>
        <time>2025-02-09T10:23:46Z</time>
      </trkpt>
      <trkpt lat="45.641784723848104" lon="7.597125275060535">
        <ele>2238.6100000000001</ele>
        <time>2025-02-09T10:24:05Z</time>
      </trkpt>
      <trkpt lat="45.641865190118551" lon="7.597161317244172">
        <ele>2239.21</ele>
        <time>2025-02-09T10:24:22Z</time>
      </trkpt>
      <trkpt lat="45.641943896189332" lon="7.597135836258531">
        <ele>2241.4000000000001</ele>
        <time>2025-02-09T10:24:43Z</time>
      </trkpt>
      <trkpt lat="45.642027799040079" lon="7.59715729393065">
        <ele>2243.5500000000002</ele>
        <time>2025-02-09T10:25:05Z</time>
      </trkpt>
      <trkpt lat="45.642111366614699" lon="7.59715142659843">
        <ele>2246.1700000000001</ele>
        <time>2025-02-09T10:25:29Z</time>
      </trkpt>
      <trkpt lat="45.642190994694829" lon="7.597142290323973">
        <ele>2248.2399999999998</ele>
        <time>2025-02-09T10:25:49Z</time>
      </trkpt>
      <trkpt lat="45.642262073233724" lon="7.597217559814453">
        <ele>2248.4499999999998</ele>
        <time>2025-02-09T10:26:07Z</time>
      </trkpt>
      <trkpt lat="45.642320159822702" lon="7.597324009984732">
        <ele>2248.79</ele>
        <time>2025-02-09T10:26:23Z</time>
      </trkpt>
      <trkpt lat="45.642371289432049" lon="7.597436076030135">
        <ele>2250.73</ele>
        <time>2025-02-09T10:26:42Z</time>
      </trkpt>
      <trkpt lat="45.642418731004" lon="7.597537413239479">
        <ele>2252</ele>
        <time>2025-02-09T10:27:01Z</time>
      </trkpt>
      <trkpt lat="45.642466256394982" lon="7.597645958885551">
        <ele>2253.3200000000002</ele>
        <time>2025-02-09T10:27:20Z</time>
      </trkpt>
      <trkpt lat="45.642529707401991" lon="7.597717624157667">
        <ele>2253.8299999999999</ele>
        <time>2025-02-09T10:28:17Z</time>
      </trkpt>
      <trkpt lat="45.642615202814341" lon="7.597733633592725">
        <ele>2254.2399999999998</ele>
        <time>2025-02-09T10:28:28Z</time>
      </trkpt>
      <trkpt lat="45.642700446769595" lon="7.597723994404078">
        <ele>2255.3600000000001</ele>
        <time>2025-02-09T10:28:41Z</time>
      </trkpt>
      <trkpt lat="45.642792396247387" lon="7.597711170092225">
        <ele>2256.4099999999999</ele>
        <time>2025-02-09T10:28:56Z</time>
      </trkpt>
      <trkpt lat="45.642881914973259" lon="7.597686611115933">
        <ele>2257.0500000000002</ele>
        <time>2025-02-09T10:29:15Z</time>
      </trkpt>
      <trkpt lat="45.642969002947211" lon="7.597692478448153">
        <ele>2257.7199999999998</ele>
        <time>2025-02-09T10:29:32Z</time>
      </trkpt>
      <trkpt lat="45.643065143376589" lon="7.597724664956331">
        <ele>2257.79</ele>
        <time>2025-02-09T10:30:46Z</time>
      </trkpt>
      <trkpt lat="45.643148375675082" lon="7.597779231145978">
        <ele>2258.77</ele>
        <time>2025-02-09T10:31:03Z</time>
      </trkpt>
      <trkpt lat="45.643227584660053" lon="7.597841005772352">
        <ele>2259.5300000000002</ele>
        <time>2025-02-09T10:31:18Z</time>
      </trkpt>
      <trkpt lat="45.64331048168242" lon="7.597892805933952">
        <ele>2261.0900000000001</ele>
        <time>2025-02-09T10:31:36Z</time>
      </trkpt>
      <trkpt lat="45.643388936296105" lon="7.597947455942631">
        <ele>2263.2399999999998</ele>
        <time>2025-02-09T10:32:03Z</time>
      </trkpt>
      <trkpt lat="45.64346638508141" lon="7.598027922213078">
        <ele>2265.6700000000001</ele>
        <time>2025-02-09T10:32:23Z</time>
      </trkpt>
      <trkpt lat="45.643544672057033" lon="7.598086260259152">
        <ele>2268.9000000000001</ele>
        <time>2025-02-09T10:32:52Z</time>
      </trkpt>
      <trkpt lat="45.643596891313791" lon="7.598126828670502">
        <ele>2271.2600000000002</ele>
        <time>2025-02-09T10:33:25Z</time>
      </trkpt>
      <trkpt lat="45.643659587949514" lon="7.59822447784245">
        <ele>2272.3699999999999</ele>
        <time>2025-02-09T10:33:42Z</time>
      </trkpt>
      <trkpt lat="45.643722703680396" lon="7.598320199176669">
        <ele>2273.4099999999999</ele>
        <time>2025-02-09T10:33:57Z</time>
      </trkpt>
      <trkpt lat="45.643772995099425" lon="7.598429583013058">
        <ele>2275.1300000000001</ele>
        <time>2025-02-09T10:34:14Z</time>
      </trkpt>
      <trkpt lat="45.643822196871042" lon="7.598534105345607">
        <ele>2275.79</ele>
        <time>2025-02-09T10:34:29Z</time>
      </trkpt>
      <trkpt lat="45.643896125257015" lon="7.598608871921897">
        <ele>2277.73</ele>
        <time>2025-02-09T10:34:48Z</time>
      </trkpt>
      <trkpt lat="45.643973154947162" lon="7.598691517487168">
        <ele>2279.73</ele>
        <time>2025-02-09T10:35:07Z</time>
      </trkpt>
      <trkpt lat="45.644037527963519" lon="7.598796123638749">
        <ele>2281.1599999999999</ele>
        <time>2025-02-09T10:35:24Z</time>
      </trkpt>
      <trkpt lat="45.644075330346823" lon="7.598919421434403">
        <ele>2282.02</ele>
        <time>2025-02-09T10:35:39Z</time>
      </trkpt>
      <trkpt lat="45.64408253878355" lon="7.599044060334563">
        <ele>2282.5300000000002</ele>
        <time>2025-02-09T10:36:05Z</time>
      </trkpt>
      <trkpt lat="45.644035013392568" lon="7.599155539646745">
        <ele>2284.6900000000001</ele>
        <time>2025-02-09T10:36:29Z</time>
      </trkpt>
      <trkpt lat="45.643997462466359" lon="7.599277747794986">
        <ele>2285.3699999999999</ele>
        <time>2025-02-09T10:38:27Z</time>
      </trkpt>
      <trkpt lat="45.643995702266693" lon="7.599413618445396">
        <ele>2284.8699999999999</ele>
        <time>2025-02-09T10:38:40Z</time>
      </trkpt>
      <trkpt lat="45.644033923745155" lon="7.599520906805992">
        <ele>2284.2199999999998</ele>
        <time>2025-02-09T10:38:55Z</time>
      </trkpt>
      <trkpt lat="45.64409427344799" lon="7.599619477987289">
        <ele>2285.0799999999999</ele>
        <time>2025-02-09T10:39:09Z</time>
      </trkpt>
      <trkpt lat="45.64411673694849" lon="7.599753756076098">
        <ele>2286.5799999999999</ele>
        <time>2025-02-09T10:39:25Z</time>
      </trkpt>
      <trkpt lat="45.6441421341151" lon="7.59987847879529">
        <ele>2289.1700000000001</ele>
        <time>2025-02-09T10:39:44Z</time>
      </trkpt>
      <trkpt lat="45.644170800223947" lon="7.599991383031011">
        <ele>2290.0100000000002</ele>
        <time>2025-02-09T10:40:13Z</time>
      </trkpt>
      <trkpt lat="45.644238609820604" lon="7.600088361650705">
        <ele>2288.5599999999999</ele>
        <time>2025-02-09T10:40:29Z</time>
      </trkpt>
      <trkpt lat="45.644296277314425" lon="7.600183580070734">
        <ele>2290.1199999999999</ele>
        <time>2025-02-09T10:40:47Z</time>
      </trkpt>
      <trkpt lat="45.644369702786207" lon="7.600184418261051">
        <ele>2292.9499999999998</ele>
        <time>2025-02-09T10:41:18Z</time>
      </trkpt>
      <trkpt lat="45.644450839608908" lon="7.600250216200948">
        <ele>2294.9499999999998</ele>
        <time>2025-02-09T10:41:38Z</time>
      </trkpt>
      <trkpt lat="45.644506327807903" lon="7.600354654714465">
        <ele>2295.5</ele>
        <time>2025-02-09T10:41:53Z</time>
      </trkpt>
      <trkpt lat="45.644580172374845" lon="7.600392205640674">
        <ele>2296.0500000000002</ele>
        <time>2025-02-09T10:42:09Z</time>
      </trkpt>
      <trkpt lat="45.644654268398881" lon="7.600441910326481">
        <ele>2296.29</ele>
        <time>2025-02-09T10:42:27Z</time>
      </trkpt>
      <trkpt lat="45.644715204834938" lon="7.600525561720133">
        <ele>2296.29</ele>
        <time>2025-02-09T10:42:42Z</time>
      </trkpt>
      <trkpt lat="45.644788881763816" lon="7.600591611117125">
        <ele>2296.1500000000001</ele>
        <time>2025-02-09T10:43:01Z</time>
      </trkpt>
      <trkpt lat="45.644860295578837" lon="7.600633269175887">
        <ele>2296.25</ele>
        <time>2025-02-09T10:43:17Z</time>
      </trkpt>
      <trkpt lat="45.644953586161137" lon="7.600596388801932">
        <ele>2297.25</ele>
        <time>2025-02-09T10:43:32Z</time>
      </trkpt>
      <trkpt lat="45.645030029118061" lon="7.600543331354857">
        <ele>2298.0900000000001</ele>
        <time>2025-02-09T10:43:48Z</time>
      </trkpt>
      <trkpt lat="45.645090211182833" lon="7.600515084341168">
        <ele>2299.23</ele>
        <time>2025-02-09T10:44:07Z</time>
      </trkpt>
      <trkpt lat="45.645177802070975" lon="7.60049220174551">
        <ele>2299.1999999999998</ele>
        <time>2025-02-09T10:44:21Z</time>
      </trkpt>
      <trkpt lat="45.645242175087333" lon="7.600442329421639">
        <ele>2298.9000000000001</ele>
        <time>2025-02-09T10:44:36Z</time>
      </trkpt>
      <trkpt lat="45.645324569195509" lon="7.600383656099439">
        <ele>2299.2800000000002</ele>
        <time>2025-02-09T10:44:54Z</time>
      </trkpt>
      <trkpt lat="45.645408220589161" lon="7.600333280861378">
        <ele>2300.1399999999999</ele>
        <time>2025-02-09T10:45:13Z</time>
      </trkpt>
      <trkpt lat="45.645470917224884" lon="7.60026547126472">
        <ele>2300.54</ele>
        <time>2025-02-09T10:45:33Z</time>
      </trkpt>
      <trkpt lat="45.645541911944747" lon="7.600197661668062">
        <ele>2300.9499999999998</ele>
        <time>2025-02-09T10:45:57Z</time>
      </trkpt>
      <trkpt lat="45.645495224744081" lon="7.600252060219646">
        <ele>2300.3400000000001</ele>
        <time>2025-02-09T10:47:05Z</time>
      </trkpt>
      <trkpt lat="45.645427918061614" lon="7.60033093392849">
        <ele>2299.6999999999998</ele>
        <time>2025-02-09T10:47:30Z</time>
      </trkpt>
      <trkpt lat="45.645347367972136" lon="7.600375609472394">
        <ele>2299.3299999999999</ele>
        <time>2025-02-09T10:47:54Z</time>
      </trkpt>
      <trkpt lat="45.645399503409863" lon="7.600474935024977">
        <ele>2299.0599999999999</ele>
        <time>2025-02-09T10:48:28Z</time>
      </trkpt>
      <trkpt lat="45.645479215309024" lon="7.600568141788244">
        <ele>2298.73</ele>
        <time>2025-02-09T10:48:43Z</time>
      </trkpt>
      <trkpt lat="45.645561860874295" lon="7.600619187578559">
        <ele>2298.5300000000002</ele>
        <time>2025-02-09T10:48:55Z</time>
      </trkpt>
      <trkpt lat="45.645628329366446" lon="7.600683392956853">
        <ele>2298.2399999999998</ele>
        <time>2025-02-09T10:49:23Z</time>
      </trkpt>
      <trkpt lat="45.645689265802503" lon="7.600792776793242">
        <ele>2298.3000000000002</ele>
        <time>2025-02-09T10:49:41Z</time>
      </trkpt>
      <trkpt lat="45.645753722637892" lon="7.600886905565858">
        <ele>2299.0799999999999</ele>
        <time>2025-02-09T10:49:58Z</time>
      </trkpt>
      <trkpt lat="45.645816922187805" lon="7.600972233340144">
        <ele>2300.0700000000002</ele>
        <time>2025-02-09T10:50:20Z</time>
      </trkpt>
      <trkpt lat="45.645821699872613" lon="7.60099939070642">
        <ele>2300.6599999999999</ele>
        <time>2025-02-09T10:51:49Z</time>
      </trkpt>
      <trkpt lat="45.645758835598826" lon="7.600899059325457">
        <ele>2298.8400000000001</ele>
        <time>2025-02-09T10:52:00Z</time>
      </trkpt>
      <trkpt lat="45.645689433440566" lon="7.600802332162857">
        <ele>2297.3800000000001</ele>
        <time>2025-02-09T10:52:11Z</time>
      </trkpt>
      <trkpt lat="45.645625730976462" lon="7.600696217268705">
        <ele>2297.1700000000001</ele>
        <time>2025-02-09T10:52:23Z</time>
      </trkpt>
      <trkpt lat="45.64555523917079" lon="7.600607117637992">
        <ele>2297.6300000000001</ele>
        <time>2025-02-09T10:52:36Z</time>
      </trkpt>
      <trkpt lat="45.645475191995502" lon="7.600542157888413">
        <ele>2298.3499999999999</ele>
        <time>2025-02-09T10:52:53Z</time>
      </trkpt>
      <trkpt lat="45.645401431247592" lon="7.60046043433249">
        <ele>2298.4099999999999</ele>
        <time>2025-02-09T10:53:08Z</time>
      </trkpt>
      <trkpt lat="45.645325323566794" lon="7.600381392985582">
        <ele>2298.3600000000001</ele>
        <time>2025-02-09T10:53:24Z</time>
      </trkpt>
      <trkpt lat="45.645252736285329" lon="7.60044576600194">
        <ele>2297.6700000000001</ele>
        <time>2025-02-09T10:54:02Z</time>
      </trkpt>
      <trkpt lat="45.645193476229906" lon="7.600474767386913">
        <ele>2297.7800000000002</ele>
        <time>2025-02-09T11:00:17Z</time>
      </trkpt>
      <trkpt lat="45.645107226446271" lon="7.600513407960534">
        <ele>2297.6999999999998</ele>
        <time>2025-02-09T11:00:28Z</time>
      </trkpt>
      <trkpt lat="45.645008655264974" lon="7.60054592974484">
        <ele>2297.3699999999999</ele>
        <time>2025-02-09T11:00:38Z</time>
      </trkpt>
      <trkpt lat="45.644916035234928" lon="7.600599741563201">
        <ele>2295.5999999999999</ele>
        <time>2025-02-09T11:00:47Z</time>
      </trkpt>
      <trkpt lat="45.644819308072329" lon="7.600600747391582">
        <ele>2294.48</ele>
        <time>2025-02-09T11:00:58Z</time>
      </trkpt>
      <trkpt lat="45.644738925620914" lon="7.600525058805943">
        <ele>2294.1900000000001</ele>
        <time>2025-02-09T11:01:13Z</time>
      </trkpt>
      <trkpt lat="45.644661476835608" lon="7.600453812628985">
        <ele>2294.3800000000001</ele>
        <time>2025-02-09T11:01:23Z</time>
      </trkpt>
      <trkpt lat="45.644589643925428" lon="7.600382482632995">
        <ele>2294.0700000000002</ele>
        <time>2025-02-09T11:01:33Z</time>
      </trkpt>
      <trkpt lat="45.644502388313413" lon="7.600338980555534">
        <ele>2293.0599999999999</ele>
        <time>2025-02-09T11:01:43Z</time>
      </trkpt>
      <trkpt lat="45.644445307552814" lon="7.600230183452368">
        <ele>2292.2600000000002</ele>
        <time>2025-02-09T11:01:53Z</time>
      </trkpt>
      <trkpt lat="45.644373223185539" lon="7.600163798779249">
        <ele>2291.29</ele>
        <time>2025-02-09T11:02:03Z</time>
      </trkpt>
      <trkpt lat="45.644288063049316" lon="7.600155835971236">
        <ele>2287.3400000000001</ele>
        <time>2025-02-09T11:02:15Z</time>
      </trkpt>
      <trkpt lat="45.644222684204578" lon="7.600057767704129">
        <ele>2284.8499999999999</ele>
        <time>2025-02-09T11:02:26Z</time>
      </trkpt>
      <trkpt lat="45.644153114408255" lon="7.599965315312147">
        <ele>2286.3899999999999</ele>
        <time>2025-02-09T11:02:41Z</time>
      </trkpt>
      <trkpt lat="45.644112378358841" lon="7.599842939525843">
        <ele>2285.9899999999998</ele>
        <time>2025-02-09T11:02:53Z</time>
      </trkpt>
      <trkpt lat="45.644089579582214" lon="7.599708829075098">
        <ele>2283.3400000000001</ele>
        <time>2025-02-09T11:03:04Z</time>
      </trkpt>
      <trkpt lat="45.644063428044319" lon="7.599575305357575">
        <ele>2281.8299999999999</ele>
        <time>2025-02-09T11:03:14Z</time>
      </trkpt>
      <trkpt lat="45.644000647589564" lon="7.599470615386963">
        <ele>2280.73</ele>
        <time>2025-02-09T11:03:24Z</time>
      </trkpt>
      <trkpt lat="45.643980111926794" lon="7.599349245429039">
        <ele>2281.5300000000002</ele>
        <time>2025-02-09T11:03:36Z</time>
      </trkpt>
      <trkpt lat="45.643987152725458" lon="7.599214548245072">
        <ele>2281.8899999999999</ele>
        <time>2025-02-09T11:03:48Z</time>
      </trkpt>
      <trkpt lat="45.644024536013603" lon="7.599097453057766">
        <ele>2281.8200000000002</ele>
        <time>2025-02-09T11:04:00Z</time>
      </trkpt>
      <trkpt lat="45.644045909866691" lon="7.598972897976637">
        <ele>2279.27</ele>
        <time>2025-02-09T11:04:13Z</time>
      </trkpt>
      <trkpt lat="45.644021602347493" lon="7.598849516361952">
        <ele>2278.2199999999998</ele>
        <time>2025-02-09T11:04:24Z</time>
      </trkpt>
      <trkpt lat="45.643972987309098" lon="7.598728900775313">
        <ele>2277.8699999999999</ele>
        <time>2025-02-09T11:04:35Z</time>
      </trkpt>
      <trkpt lat="45.643911380320787" lon="7.598632760345936">
        <ele>2276.3400000000001</ele>
        <time>2025-02-09T11:04:45Z</time>
      </trkpt>
      <trkpt lat="45.64383770339191" lon="7.598556149750948">
        <ele>2273.6999999999998</ele>
        <time>2025-02-09T11:04:55Z</time>
      </trkpt>
      <trkpt lat="45.643771989271045" lon="7.598469816148281">
        <ele>2271.8299999999999</ele>
        <time>2025-02-09T11:05:05Z</time>
      </trkpt>
      <trkpt lat="45.643725050613284" lon="7.598346183076501">
        <ele>2271.25</ele>
        <time>2025-02-09T11:05:16Z</time>
      </trkpt>
      <trkpt lat="45.643660426139832" lon="7.59824501350522">
        <ele>2269.0300000000002</ele>
        <time>2025-02-09T11:05:26Z</time>
      </trkpt>
      <trkpt lat="45.643589850515127" lon="7.598142838105559">
        <ele>2268.5500000000002</ele>
        <time>2025-02-09T11:05:36Z</time>
      </trkpt>
      <trkpt lat="45.643523298203945" lon="7.598079303279519">
        <ele>2266.6399999999999</ele>
        <time>2025-02-09T11:05:48Z</time>
      </trkpt>
      <trkpt lat="45.643439730629325" lon="7.598040495067835">
        <ele>2262.9699999999998</ele>
        <time>2025-02-09T11:06:00Z</time>
      </trkpt>
      <trkpt lat="45.643364461138844" lon="7.597969248890877">
        <ele>2260.8299999999999</ele>
        <time>2025-02-09T11:06:10Z</time>
      </trkpt>
      <trkpt lat="45.643281899392605" lon="7.597904456779361">
        <ele>2258.4499999999998</ele>
        <time>2025-02-09T11:06:21Z</time>
      </trkpt>
      <trkpt lat="45.643196403980255" lon="7.597849722951651">
        <ele>2256.73</ele>
        <time>2025-02-09T11:06:32Z</time>
      </trkpt>
      <trkpt lat="45.643120212480426" lon="7.597778728231788">
        <ele>2255.8400000000001</ele>
        <time>2025-02-09T11:06:43Z</time>
      </trkpt>
      <trkpt lat="45.643028682097793" lon="7.597721060737968">
        <ele>2254.79</ele>
        <time>2025-02-09T11:06:53Z</time>
      </trkpt>
      <trkpt lat="45.642937151715159" lon="7.597695244476199">
        <ele>2255.1399999999999</ele>
        <time>2025-02-09T11:07:04Z</time>
      </trkpt>
      <trkpt lat="45.642847968265414" lon="7.597688287496567">
        <ele>2254.4099999999999</ele>
        <time>2025-02-09T11:07:14Z</time>
      </trkpt>
      <trkpt lat="45.642755767330527" lon="7.597712595015764">
        <ele>2253.8299999999999</ele>
        <time>2025-02-09T11:07:25Z</time>
      </trkpt>
      <trkpt lat="45.642660884186625" lon="7.597721312195063">
        <ele>2252.9200000000001</ele>
        <time>2025-02-09T11:07:41Z</time>
      </trkpt>
      <trkpt lat="45.642565414309502" lon="7.597728269174695">
        <ele>2252.25</ele>
        <time>2025-02-09T11:07:51Z</time>
      </trkpt>
      <trkpt lat="45.642479751259089" lon="7.597688790410757">
        <ele>2251.4499999999998</ele>
        <time>2025-02-09T11:08:01Z</time>
      </trkpt>
      <trkpt lat="45.642425185069442" lon="7.597583346068859">
        <ele>2250.9499999999998</ele>
        <time>2025-02-09T11:08:11Z</time>
      </trkpt>
      <trkpt lat="45.642370702698827" lon="7.59747052565217">
        <ele>2248.9699999999998</ele>
        <time>2025-02-09T11:08:20Z</time>
      </trkpt>
      <trkpt lat="45.642314292490482" lon="7.59735225699842">
        <ele>2247.4099999999999</ele>
        <time>2025-02-09T11:08:30Z</time>
      </trkpt>
      <trkpt lat="45.642274729907513" lon="7.597250752151012">
        <ele>2246.04</ele>
        <time>2025-02-09T11:09:41Z</time>
      </trkpt>
      <trkpt lat="45.642195688560605" lon="7.597162909805775">
        <ele>2246.3499999999999</ele>
        <time>2025-02-09T11:09:51Z</time>
      </trkpt>
      <trkpt lat="45.642103319987655" lon="7.597152767702937">
        <ele>2244.5300000000002</ele>
        <time>2025-02-09T11:10:01Z</time>
      </trkpt>
      <trkpt lat="45.642002988606691" lon="7.59714555926621">
        <ele>2241.1900000000001</ele>
        <time>2025-02-09T11:10:11Z</time>
      </trkpt>
      <trkpt lat="45.641907183453441" lon="7.597151175141335">
        <ele>2238.8099999999999</ele>
        <time>2025-02-09T11:10:21Z</time>
      </trkpt>
      <trkpt lat="45.641819089651108" lon="7.597139524295926">
        <ele>2236.7600000000002</ele>
        <time>2025-02-09T11:10:30Z</time>
      </trkpt>
      <trkpt lat="45.64173175022006" lon="7.597102057188749">
        <ele>2236.0799999999999</ele>
        <time>2025-02-09T11:10:40Z</time>
      </trkpt>
      <trkpt lat="45.641642985865474" lon="7.597048245370388">
        <ele>2234.6999999999998</ele>
        <time>2025-02-09T11:10:51Z</time>
      </trkpt>
      <trkpt lat="45.641563693061471" lon="7.596987057477236">
        <ele>2233.3699999999999</ele>
        <time>2025-02-09T11:11:02Z</time>
      </trkpt>
      <trkpt lat="45.641490435227752" lon="7.596915392205119">
        <ele>2231.5300000000002</ele>
        <time>2025-02-09T11:11:14Z</time>
      </trkpt>
      <trkpt lat="45.641410974785686" lon="7.596829729154706">
        <ele>2230.4499999999998</ele>
        <time>2025-02-09T11:12:37Z</time>
      </trkpt>
      <trkpt lat="45.641317768022418" lon="7.596831573173404">
        <ele>2228.6300000000001</ele>
        <time>2025-02-09T11:12:48Z</time>
      </trkpt>
      <trkpt lat="45.641254736110568" lon="7.596910949796438">
        <ele>2226.4400000000001</ele>
        <time>2025-02-09T11:12:59Z</time>
      </trkpt>
      <trkpt lat="45.641198912635446" lon="7.597012035548687">
        <ele>2223.8800000000001</ele>
        <time>2025-02-09T11:13:08Z</time>
      </trkpt>
      <trkpt lat="45.641121212393045" lon="7.597084371373057">
        <ele>2221.4499999999998</ele>
        <time>2025-02-09T11:13:18Z</time>
      </trkpt>
      <trkpt lat="45.641058683395386" lon="7.597177913412452">
        <ele>2218.5999999999999</ele>
        <time>2025-02-09T11:13:28Z</time>
      </trkpt>
      <trkpt lat="45.641012080013752" lon="7.597295846790075">
        <ele>2216.1999999999998</ele>
        <time>2025-02-09T11:13:39Z</time>
      </trkpt>
      <trkpt lat="45.640940414741635" lon="7.597378743812442">
        <ele>2214.0599999999999</ele>
        <time>2025-02-09T11:13:48Z</time>
      </trkpt>
      <trkpt lat="45.6409249920398" lon="7.597499862313271">
        <ele>2212.3099999999999</ele>
        <time>2025-02-09T11:13:58Z</time>
      </trkpt>
      <trkpt lat="45.640876963734627" lon="7.597612095996738">
        <ele>2209.5100000000002</ele>
        <time>2025-02-09T11:14:07Z</time>
      </trkpt>
      <trkpt lat="45.640848046168685" lon="7.59773924946785">
        <ele>2206.8400000000001</ele>
        <time>2025-02-09T11:14:16Z</time>
      </trkpt>
      <trkpt lat="45.640826588496566" lon="7.597852069884539">
        <ele>2205.1900000000001</ele>
        <time>2025-02-09T11:14:43Z</time>
      </trkpt>
      <trkpt lat="45.640815524384379" lon="7.597993221133947">
        <ele>2203.8699999999999</ele>
        <time>2025-02-09T11:14:52Z</time>
      </trkpt>
      <trkpt lat="45.640785517171025" lon="7.598134707659483">
        <ele>2201.8299999999999</ele>
        <time>2025-02-09T11:15:01Z</time>
      </trkpt>
      <trkpt lat="45.640763975679874" lon="7.598264375701547">
        <ele>2201.0900000000001</ele>
        <time>2025-02-09T11:15:10Z</time>
      </trkpt>
      <trkpt lat="45.640752576291561" lon="7.598398821428418">
        <ele>2200.1300000000001</ele>
        <time>2025-02-09T11:15:19Z</time>
      </trkpt>
      <trkpt lat="45.640729861333966" lon="7.598533853888512">
        <ele>2199.21</ele>
        <time>2025-02-09T11:15:29Z</time>
      </trkpt>
      <trkpt lat="45.640696668997407" lon="7.598655391484499">
        <ele>2198.0900000000001</ele>
        <time>2025-02-09T11:15:38Z</time>
      </trkpt>
      <trkpt lat="45.64063279889524" lon="7.598757231608033">
        <ele>2195.9499999999998</ele>
        <time>2025-02-09T11:15:47Z</time>
      </trkpt>
      <trkpt lat="45.640556607395411" lon="7.598840044811368">
        <ele>2194.4099999999999</ele>
        <time>2025-02-09T11:15:56Z</time>
      </trkpt>
      <trkpt lat="45.640495670959353" lon="7.598940124735236">
        <ele>2192.4499999999998</ele>
        <time>2025-02-09T11:16:06Z</time>
      </trkpt>
      <trkpt lat="45.640439260751009" lon="7.599041294306517">
        <ele>2189.6999999999998</ele>
        <time>2025-02-09T11:16:16Z</time>
      </trkpt>
      <trkpt lat="45.64035871066153" lon="7.59911572560668">
        <ele>2186.7199999999998</ele>
        <time>2025-02-09T11:16:35Z</time>
      </trkpt>
      <trkpt lat="45.640276568010449" lon="7.599194096401334">
        <ele>2183.3600000000001</ele>
        <time>2025-02-09T11:16:46Z</time>
      </trkpt>
      <trkpt lat="45.640245219692588" lon="7.599326530471444">
        <ele>2181.23</ele>
        <time>2025-02-09T11:16:57Z</time>
      </trkpt>
      <trkpt lat="45.640247482806444" lon="7.599455192685127">
        <ele>2179.7399999999998</ele>
        <time>2025-02-09T11:17:06Z</time>
      </trkpt>
      <trkpt lat="45.640245554968715" lon="7.599588297307491">
        <ele>2178.6599999999999</ele>
        <time>2025-02-09T11:17:15Z</time>
      </trkpt>
      <trkpt lat="45.640234323218465" lon="7.599725676700473">
        <ele>2177.77</ele>
        <time>2025-02-09T11:17:24Z</time>
      </trkpt>
      <trkpt lat="45.640159975737333" lon="7.59979248046875">
        <ele>2176.6100000000001</ele>
        <time>2025-02-09T11:17:33Z</time>
      </trkpt>
      <trkpt lat="45.640076827257872" lon="7.599858529865742">
        <ele>2175.46</ele>
        <time>2025-02-09T11:17:42Z</time>
      </trkpt>
      <trkpt lat="45.639990409836173" lon="7.59992147795856">
        <ele>2173.7800000000002</ele>
        <time>2025-02-09T11:17:51Z</time>
      </trkpt>
      <trkpt lat="45.639900304377079" lon="7.599937068298459">
        <ele>2171.9000000000001</ele>
        <time>2025-02-09T11:18:00Z</time>
      </trkpt>
      <trkpt lat="45.639848504215479" lon="7.600037483498454">
        <ele>2170.3200000000002</ele>
        <time>2025-02-09T11:18:10Z</time>
      </trkpt>
      <trkpt lat="45.639806427061558" lon="7.600154578685761">
        <ele>2168.23</ele>
        <time>2025-02-09T11:18:19Z</time>
      </trkpt>
      <trkpt lat="45.639727720990777" lon="7.600227165967226">
        <ele>2166.5100000000002</ele>
        <time>2025-02-09T11:18:28Z</time>
      </trkpt>
      <trkpt lat="45.639688158407807" lon="7.600344512611628">
        <ele>2164.6799999999998</ele>
        <time>2025-02-09T11:18:37Z</time>
      </trkpt>
      <trkpt lat="45.639638788998127" lon="7.600452806800604">
        <ele>2162.2600000000002</ele>
        <time>2025-02-09T11:18:47Z</time>
      </trkpt>
      <trkpt lat="45.639592688530684" lon="7.600551629438996">
        <ele>2159.8899999999999</ele>
        <time>2025-02-09T11:18:59Z</time>
      </trkpt>
      <trkpt lat="45.639524962753057" lon="7.600633185356855">
        <ele>2157.8699999999999</ele>
        <time>2025-02-09T11:19:08Z</time>
      </trkpt>
      <trkpt lat="45.639453046023846" lon="7.600727062672377">
        <ele>2157.0900000000001</ele>
        <time>2025-02-09T11:19:17Z</time>
      </trkpt>
      <trkpt lat="45.639402670785785" lon="7.600847091525793">
        <ele>2155.8400000000001</ele>
        <time>2025-02-09T11:19:28Z</time>
      </trkpt>
      <trkpt lat="45.639324132353067" lon="7.600915655493736">
        <ele>2153.3299999999999</ele>
        <time>2025-02-09T11:19:37Z</time>
      </trkpt>
      <trkpt lat="45.639259340241551" lon="7.601010790094733">
        <ele>2150.1500000000001</ele>
        <time>2025-02-09T11:19:48Z</time>
      </trkpt>
      <trkpt lat="45.639181723818183" lon="7.601073570549488">
        <ele>2147.8299999999999</ele>
        <time>2025-02-09T11:20:03Z</time>
      </trkpt>
      <trkpt lat="45.63911072909832" lon="7.601153701543808">
        <ele>2145.54</ele>
        <time>2025-02-09T11:20:21Z</time>
      </trkpt>
      <trkpt lat="45.639036549255252" lon="7.60124372318387">
        <ele>2143.0300000000002</ele>
        <time>2025-02-09T11:20:32Z</time>
      </trkpt>
      <trkpt lat="45.638968991115689" lon="7.601340366527438">
        <ele>2140.54</ele>
        <time>2025-02-09T11:20:43Z</time>
      </trkpt>
      <trkpt lat="45.638903276994824" lon="7.601426364853978">
        <ele>2138.1500000000001</ele>
        <time>2025-02-09T11:20:53Z</time>
      </trkpt>
      <trkpt lat="45.638836473226547" lon="7.601519906893373">
        <ele>2135.1399999999999</ele>
        <time>2025-02-09T11:21:04Z</time>
      </trkpt>
      <trkpt lat="45.638772435486317" lon="7.601613029837608">
        <ele>2133.1199999999999</ele>
        <time>2025-02-09T11:21:14Z</time>
      </trkpt>
      <trkpt lat="45.638706386089325" lon="7.601713025942445">
        <ele>2131.02</ele>
        <time>2025-02-09T11:21:25Z</time>
      </trkpt>
      <trkpt lat="45.638657184317708" lon="7.601817380636931">
        <ele>2129.1199999999999</ele>
        <time>2025-02-09T11:21:34Z</time>
      </trkpt>
      <trkpt lat="45.638657603412867" lon="7.601961633190513">
        <ele>2127.3200000000002</ele>
        <time>2025-02-09T11:21:44Z</time>
      </trkpt>
      <trkpt lat="45.638615777716041" lon="7.602078644558787">
        <ele>2125.9299999999998</ele>
        <time>2025-02-09T11:21:53Z</time>
      </trkpt>
      <trkpt lat="45.63859524205327" lon="7.602207222953439">
        <ele>2123.8499999999999</ele>
        <time>2025-02-09T11:22:03Z</time>
      </trkpt>
      <trkpt lat="45.638615190982819" lon="7.602345021441579">
        <ele>2121.6399999999999</ele>
        <time>2025-02-09T11:22:13Z</time>
      </trkpt>
      <trkpt lat="45.638616532087326" lon="7.60247552767396">
        <ele>2120.6799999999998</ele>
        <time>2025-02-09T11:22:23Z</time>
      </trkpt>
      <trkpt lat="45.638534389436245" lon="7.60253026150167">
        <ele>2120.27</ele>
        <time>2025-02-09T11:22:35Z</time>
      </trkpt>
      <trkpt lat="45.638474458828568" lon="7.602630006149411">
        <ele>2119.3899999999999</ele>
        <time>2025-02-09T11:22:44Z</time>
      </trkpt>
      <trkpt lat="45.638399356976151" lon="7.602720614522696">
        <ele>2118.6999999999998</ele>
        <time>2025-02-09T11:22:53Z</time>
      </trkpt>
      <trkpt lat="45.638363482430577" lon="7.602844834327698">
        <ele>2118.1100000000001</ele>
        <time>2025-02-09T11:23:02Z</time>
      </trkpt>
      <trkpt lat="45.638317968696356" lon="7.602956481277943">
        <ele>2116.3299999999999</ele>
        <time>2025-02-09T11:23:11Z</time>
      </trkpt>
      <trkpt lat="45.638240939006209" lon="7.603030158206821">
        <ele>2114.6199999999999</ele>
        <time>2025-02-09T11:23:20Z</time>
      </trkpt>
      <trkpt lat="45.638185534626245" lon="7.603139374405146">
        <ele>2112.4499999999998</ele>
        <time>2025-02-09T11:23:29Z</time>
      </trkpt>
      <trkpt lat="45.638128453865647" lon="7.603239873424172">
        <ele>2109.6900000000001</ele>
        <time>2025-02-09T11:23:39Z</time>
      </trkpt>
      <trkpt lat="45.638106828555465" lon="7.603368367999792">
        <ele>2106.71</ele>
        <time>2025-02-09T11:23:48Z</time>
      </trkpt>
      <trkpt lat="45.638039857149124" lon="7.603458976373076">
        <ele>2104.5900000000001</ele>
        <time>2025-02-09T11:23:57Z</time>
      </trkpt>
      <trkpt lat="45.637966934591532" lon="7.603549417108297">
        <ele>2102.5999999999999</ele>
        <time>2025-02-09T11:24:06Z</time>
      </trkpt>
      <trkpt lat="45.637898286804557" lon="7.603638684377074">
        <ele>2100.9699999999998</ele>
        <time>2025-02-09T11:24:14Z</time>
      </trkpt>
      <trkpt lat="45.637823520228267" lon="7.603717977181077">
        <ele>2100.3099999999999</ele>
        <time>2025-02-09T11:24:23Z</time>
      </trkpt>
      <trkpt lat="45.637739952653646" lon="7.603773465380073">
        <ele>2098.9200000000001</ele>
        <time>2025-02-09T11:24:33Z</time>
      </trkpt>
      <trkpt lat="45.637647584080696" lon="7.603835826739669">
        <ele>2097.46</ele>
        <time>2025-02-09T11:24:44Z</time>
      </trkpt>
      <trkpt lat="45.637581618502736" lon="7.603942109271884">
        <ele>2096.71</ele>
        <time>2025-02-09T11:24:53Z</time>
      </trkpt>
      <trkpt lat="45.637533757835627" lon="7.604068256914616">
        <ele>2096.3000000000002</ele>
        <time>2025-02-09T11:25:03Z</time>
      </trkpt>
      <trkpt lat="45.637475252151489" lon="7.604172695428133">
        <ele>2096.1799999999998</ele>
        <time>2025-02-09T11:25:12Z</time>
      </trkpt>
      <trkpt lat="45.637406269088387" lon="7.604253999888897">
        <ele>2094.98</ele>
        <time>2025-02-09T11:25:21Z</time>
      </trkpt>
      <trkpt lat="45.637310799211264" lon="7.604296915233135">
        <ele>2093.8800000000001</ele>
        <time>2025-02-09T11:25:30Z</time>
      </trkpt>
      <trkpt lat="45.637211892753839" lon="7.604323904961348">
        <ele>2092.46</ele>
        <time>2025-02-09T11:25:39Z</time>
      </trkpt>
      <trkpt lat="45.637124218046665" lon="7.604367574676871">
        <ele>2091.1999999999998</ele>
        <time>2025-02-09T11:25:48Z</time>
      </trkpt>
      <trkpt lat="45.637035118415952" lon="7.604426331818104">
        <ele>2089.6399999999999</ele>
        <time>2025-02-09T11:25:58Z</time>
      </trkpt>
      <trkpt lat="45.636970158666372" lon="7.604514928534627">
        <ele>2087.7800000000002</ele>
        <time>2025-02-09T11:26:08Z</time>
      </trkpt>
      <trkpt lat="45.636915257200599" lon="7.604611739516258">
        <ele>2085.9099999999999</ele>
        <time>2025-02-09T11:26:19Z</time>
      </trkpt>
      <trkpt lat="45.636913748458028" lon="7.604725733399391">
        <ele>2084.8800000000001</ele>
        <time>2025-02-09T11:26:30Z</time>
      </trkpt>
      <trkpt lat="45.636938391253352" lon="7.604739312082529">
        <ele>2081.7800000000002</ele>
        <time>2025-02-09T11:53:55Z</time>
      </trkpt>
      <trkpt lat="45.636927662417293" lon="7.60468658991158">
        <ele>2085.0100000000002</ele>
        <time>2025-02-09T12:33:09Z</time>
      </trkpt>
      <trkpt lat="45.636910228058696" lon="7.604629257693887">
        <ele>2085.0999999999999</ele>
        <time>2025-02-09T12:34:21Z</time>
      </trkpt>
      <trkpt lat="45.636840825900435" lon="7.604623474180698">
        <ele>2084.9499999999998</ele>
        <time>2025-02-09T12:35:22Z</time>
      </trkpt>
      <trkpt lat="45.636803861707449" lon="7.604588186368346">
        <ele>2084.3499999999999</ele>
        <time>2025-02-09T12:37:39Z</time>
      </trkpt>
      <trkpt lat="45.636722138151526" lon="7.604589276015759">
        <ele>2083.6500000000001</ele>
        <time>2025-02-09T12:37:59Z</time>
      </trkpt>
      <trkpt lat="45.636670673266053" lon="7.604515347629786">
        <ele>2083.6300000000001</ele>
        <time>2025-02-09T12:38:10Z</time>
      </trkpt>
      <trkpt lat="45.636585680767894" lon="7.604448040947318">
        <ele>2083.8699999999999</ele>
        <time>2025-02-09T12:38:18Z</time>
      </trkpt>
      <trkpt lat="45.636495156213641" lon="7.604401772841811">
        <ele>2083.8400000000001</ele>
        <time>2025-02-09T12:38:27Z</time>
      </trkpt>
      <trkpt lat="45.636408571153879" lon="7.604335555806756">
        <ele>2083.8800000000001</ele>
        <time>2025-02-09T12:38:37Z</time>
      </trkpt>
      <trkpt lat="45.63632751815021" lon="7.604295490309596">
        <ele>2083.6799999999998</ele>
        <time>2025-02-09T12:38:47Z</time>
      </trkpt>
      <trkpt lat="45.636225678026676" lon="7.604283923283219">
        <ele>2083.46</ele>
        <time>2025-02-09T12:38:55Z</time>
      </trkpt>
      <trkpt lat="45.636136746034026" lon="7.604253413155675">
        <ele>2083.4499999999998</ele>
        <time>2025-02-09T12:39:04Z</time>
      </trkpt>
      <trkpt lat="45.636040018871427" lon="7.604199182242155">
        <ele>2083.4499999999998</ele>
        <time>2025-02-09T12:39:14Z</time>
      </trkpt>
      <trkpt lat="45.635941699147224" lon="7.604170767590404">
        <ele>2083.29</ele>
        <time>2025-02-09T12:39:23Z</time>
      </trkpt>
      <trkpt lat="45.635850420221686" lon="7.604192644357681">
        <ele>2082.8699999999999</ele>
        <time>2025-02-09T12:39:31Z</time>
      </trkpt>
      <trkpt lat="45.635759057477117" lon="7.604184178635478">
        <ele>2081.46</ele>
        <time>2025-02-09T12:39:40Z</time>
      </trkpt>
      <trkpt lat="45.635662581771612" lon="7.604207480326295">
        <ele>2079.8299999999999</ele>
        <time>2025-02-09T12:39:51Z</time>
      </trkpt>
      <trkpt lat="45.635570799931884" lon="7.60423262603581">
        <ele>2076.8000000000002</ele>
        <time>2025-02-09T12:40:04Z</time>
      </trkpt>
      <trkpt lat="45.635482119396329" lon="7.604269003495574">
        <ele>2073.6599999999999</ele>
        <time>2025-02-09T12:40:18Z</time>
      </trkpt>
      <trkpt lat="45.635392684489489" lon="7.604266488924623">
        <ele>2070.9000000000001</ele>
        <time>2025-02-09T12:40:32Z</time>
      </trkpt>
      <trkpt lat="45.635303249582648" lon="7.604269338771701">
        <ele>2067.6599999999999</ele>
        <time>2025-02-09T12:40:46Z</time>
      </trkpt>
      <trkpt lat="45.635210126638412" lon="7.604263219982386">
        <ele>2064.73</ele>
        <time>2025-02-09T12:40:58Z</time>
      </trkpt>
      <trkpt lat="45.635186741128564" lon="7.604139251634479">
        <ele>2062.5100000000002</ele>
        <time>2025-02-09T12:41:08Z</time>
      </trkpt>
      <trkpt lat="45.635198140516877" lon="7.604000195860863">
        <ele>2060.5500000000002</ele>
        <time>2025-02-09T12:41:19Z</time>
      </trkpt>
      <trkpt lat="45.635191267356277" lon="7.603868851438165">
        <ele>2058.8000000000002</ele>
        <time>2025-02-09T12:41:31Z</time>
      </trkpt>
      <trkpt lat="45.63518850132823" lon="7.60373423807323">
        <ele>2056.8299999999999</ele>
        <time>2025-02-09T12:41:41Z</time>
      </trkpt>
      <trkpt lat="45.635185148566961" lon="7.603596691042185">
        <ele>2053.4400000000001</ele>
        <time>2025-02-09T12:41:49Z</time>
      </trkpt>
      <trkpt lat="45.635169055312872" lon="7.603459898382425">
        <ele>2050.5500000000002</ele>
        <time>2025-02-09T12:41:57Z</time>
      </trkpt>
      <trkpt lat="45.635174168273807" lon="7.603327296674252">
        <ele>2048.1599999999999</ele>
        <time>2025-02-09T12:42:05Z</time>
      </trkpt>
      <trkpt lat="45.635163942351937" lon="7.603187737986445">
        <ele>2045.9000000000001</ele>
        <time>2025-02-09T12:42:15Z</time>
      </trkpt>
      <trkpt lat="45.635135611519217" lon="7.603068631142378">
        <ele>2043.21</ele>
        <time>2025-02-09T12:42:24Z</time>
      </trkpt>
      <trkpt lat="45.635066544637084" lon="7.602989841252565">
        <ele>2039.6400000000001</ele>
        <time>2025-02-09T12:42:35Z</time>
      </trkpt>
      <trkpt lat="45.634975684806705" lon="7.602984812110663">
        <ele>2035.76</ele>
        <time>2025-02-09T12:42:45Z</time>
      </trkpt>
      <trkpt lat="45.634894128888845" lon="7.603059662505984">
        <ele>2032.73</ele>
        <time>2025-02-09T12:42:56Z</time>
      </trkpt>
      <trkpt lat="45.634830761700869" lon="7.603145828470588">
        <ele>2030.27</ele>
        <time>2025-02-09T12:43:06Z</time>
      </trkpt>
      <trkpt lat="45.634800000116229" lon="7.603271640837193">
        <ele>2028.03</ele>
        <time>2025-02-09T12:43:15Z</time>
      </trkpt>
      <trkpt lat="45.634735710918903" lon="7.603351017460227">
        <ele>2025.53</ele>
        <time>2025-02-09T12:43:25Z</time>
      </trkpt>
      <trkpt lat="45.634656753391027" lon="7.603422934189439">
        <ele>2022.9400000000001</ele>
        <time>2025-02-09T12:43:34Z</time>
      </trkpt>
      <trkpt lat="45.634587854146957" lon="7.603522511199117">
        <ele>2019.1600000000001</ele>
        <time>2025-02-09T12:43:45Z</time>
      </trkpt>
      <trkpt lat="45.634530186653137" lon="7.603476829826832">
        <ele>2015.1500000000001</ele>
        <time>2025-02-09T12:44:00Z</time>
      </trkpt>
      <trkpt lat="45.634461119771004" lon="7.603582944720984">
        <ele>2011.76</ele>
        <time>2025-02-09T12:44:09Z</time>
      </trkpt>
      <trkpt lat="45.634388783946633" lon="7.603674810379744">
        <ele>2009.8299999999999</ele>
        <time>2025-02-09T12:44:17Z</time>
      </trkpt>
      <trkpt lat="45.634324578568339" lon="7.60377430357039">
        <ele>2008.4000000000001</ele>
        <time>2025-02-09T12:44:25Z</time>
      </trkpt>
      <trkpt lat="45.634269174188375" lon="7.603884693235159">
        <ele>2006.76</ele>
        <time>2025-02-09T12:44:33Z</time>
      </trkpt>
      <trkpt lat="45.634226929396391" lon="7.604005727916956">
        <ele>2004.55</ele>
        <time>2025-02-09T12:44:42Z</time>
      </trkpt>
      <trkpt lat="45.634177979081869" lon="7.604122823104262">
        <ele>2003.51</ele>
        <time>2025-02-09T12:44:53Z</time>
      </trkpt>
      <trkpt lat="45.634142188355327" lon="7.604249222204089">
        <ele>2002.4200000000001</ele>
        <time>2025-02-09T12:45:01Z</time>
      </trkpt>
      <trkpt lat="45.634094411507249" lon="7.604377130046487">
        <ele>2001.4100000000001</ele>
        <time>2025-02-09T12:45:09Z</time>
      </trkpt>
      <trkpt lat="45.634024925529957" lon="7.604481065645814">
        <ele>2000.8900000000001</ele>
        <time>2025-02-09T12:45:17Z</time>
      </trkpt>
      <trkpt lat="45.633965330198407" lon="7.604576367884874">
        <ele>2000.3900000000001</ele>
        <time>2025-02-09T12:45:25Z</time>
      </trkpt>
      <trkpt lat="45.633912440389395" lon="7.604686841368675">
        <ele>1999.8499999999999</ele>
        <time>2025-02-09T12:45:34Z</time>
      </trkpt>
      <trkpt lat="45.633840272203088" lon="7.604808714240789">
        <ele>1998.8099999999999</ele>
        <time>2025-02-09T12:45:43Z</time>
      </trkpt>
      <trkpt lat="45.633834572508931" lon="7.60493922047317">
        <ele>1997.4300000000001</ele>
        <time>2025-02-09T12:45:53Z</time>
      </trkpt>
      <trkpt lat="45.633830549195409" lon="7.605068050324917">
        <ele>1995.9000000000001</ele>
        <time>2025-02-09T12:46:01Z</time>
      </trkpt>
      <trkpt lat="45.633856533095241" lon="7.60518841445446">
        <ele>1995</ele>
        <time>2025-02-09T12:46:09Z</time>
      </trkpt>
      <trkpt lat="45.633887881413102" lon="7.605302911251783">
        <ele>1994.0599999999999</ele>
        <time>2025-02-09T12:46:17Z</time>
      </trkpt>
      <trkpt lat="45.633903639391065" lon="7.605432160198689">
        <ele>1992.46</ele>
        <time>2025-02-09T12:46:25Z</time>
      </trkpt>
      <trkpt lat="45.633915793150663" lon="7.605573646724224">
        <ele>1990.5799999999999</ele>
        <time>2025-02-09T12:46:34Z</time>
      </trkpt>
      <trkpt lat="45.633932473137975" lon="7.605714881792665">
        <ele>1987.8299999999999</ele>
        <time>2025-02-09T12:46:44Z</time>
      </trkpt>
      <trkpt lat="45.633933059871197" lon="7.605853267014027">
        <ele>1984.27</ele>
        <time>2025-02-09T12:46:55Z</time>
      </trkpt>
      <trkpt lat="45.633960301056504" lon="7.605971116572619">
        <ele>1980.8699999999999</ele>
        <time>2025-02-09T12:47:06Z</time>
      </trkpt>
      <trkpt lat="45.633911266922951" lon="7.606085613369942">
        <ele>1978.5</ele>
        <time>2025-02-09T12:47:15Z</time>
      </trkpt>
      <trkpt lat="45.633852174505591" lon="7.606178568676114">
        <ele>1975.1099999999999</ele>
        <time>2025-02-09T12:47:25Z</time>
      </trkpt>
      <trkpt lat="45.633767182007432" lon="7.606215449050069">
        <ele>1972.2</ele>
        <time>2025-02-09T12:48:44Z</time>
      </trkpt>
      <trkpt lat="45.633672047406435" lon="7.606223411858082">
        <ele>1970.3</ele>
        <time>2025-02-09T12:48:53Z</time>
      </trkpt>
      <trkpt lat="45.633579259738326" lon="7.606202876195312">
        <ele>1968.5699999999999</ele>
        <time>2025-02-09T12:49:01Z</time>
      </trkpt>
      <trkpt lat="45.63349200412631" lon="7.606179742142558">
        <ele>1966.6500000000001</ele>
        <time>2025-02-09T12:49:09Z</time>
      </trkpt>
      <trkpt lat="45.633410783484578" lon="7.606142358854413">
        <ele>1965.1900000000001</ele>
        <time>2025-02-09T12:49:18Z</time>
      </trkpt>
      <trkpt lat="45.63332486897707" lon="7.6061343960464">
        <ele>1962.1400000000001</ele>
        <time>2025-02-09T12:49:25Z</time>
      </trkpt>
      <trkpt lat="45.633297627791762" lon="7.606203211471438">
        <ele>1958.7</ele>
        <time>2025-02-09T12:49:35Z</time>
      </trkpt>
      <trkpt lat="45.633226465433836" lon="7.606211006641388">
        <ele>1955.0899999999999</ele>
        <time>2025-02-09T12:49:45Z</time>
      </trkpt>
      <trkpt lat="45.633146669715643" lon="7.606216119602323">
        <ele>1952</ele>
        <time>2025-02-09T12:49:56Z</time>
      </trkpt>
      <trkpt lat="45.633108951151371" lon="7.606259370222688">
        <ele>1948.48</ele>
        <time>2025-02-09T12:50:07Z</time>
      </trkpt>
      <trkpt lat="45.633031837642193" lon="7.606181502342224">
        <ele>1945.98</ele>
        <time>2025-02-09T12:50:16Z</time>
      </trkpt>
      <trkpt lat="45.632960926741362" lon="7.606180245056748">
        <ele>1942.3499999999999</ele>
        <time>2025-02-09T12:50:28Z</time>
      </trkpt>
      <trkpt lat="45.632890770211816" lon="7.606240594759584">
        <ele>1938.78</ele>
        <time>2025-02-09T12:50:40Z</time>
      </trkpt>
      <trkpt lat="45.632810890674591" lon="7.606177981942892">
        <ele>1935.4200000000001</ele>
        <time>2025-02-09T12:50:51Z</time>
      </trkpt>
      <trkpt lat="45.632746852934361" lon="7.606176724657416">
        <ele>1932.76</ele>
        <time>2025-02-09T12:51:04Z</time>
      </trkpt>
      <trkpt lat="45.632657250389457" lon="7.606140179559588">
        <ele>1929.6400000000001</ele>
        <time>2025-02-09T12:51:16Z</time>
      </trkpt>
      <trkpt lat="45.632615089416504" lon="7.606073208153248">
        <ele>1926.8599999999999</ele>
        <time>2025-02-09T12:51:25Z</time>
      </trkpt>
      <trkpt lat="45.6325738504529" lon="7.605949072167277">
        <ele>1923.8800000000001</ele>
        <time>2025-02-09T12:51:34Z</time>
      </trkpt>
      <trkpt lat="45.632483828812838" lon="7.60593700222671">
        <ele>1922.21</ele>
        <time>2025-02-09T12:51:43Z</time>
      </trkpt>
      <trkpt lat="45.632404871284962" lon="7.605879418551922">
        <ele>1917.8</ele>
        <time>2025-02-09T12:51:53Z</time>
      </trkpt>
      <trkpt lat="45.632442589849234" lon="7.60574153624475">
        <ele>1914.04</ele>
        <time>2025-02-09T12:52:04Z</time>
      </trkpt>
      <trkpt lat="45.632398081943393" lon="7.605617819353938">
        <ele>1912.5699999999999</ele>
        <time>2025-02-09T12:52:14Z</time>
      </trkpt>
      <trkpt lat="45.632316526025534" lon="7.605656543746591">
        <ele>1909.25</ele>
        <time>2025-02-09T12:52:25Z</time>
      </trkpt>
      <trkpt lat="45.632229605689645" lon="7.605619747191668">
        <ele>1906.1900000000001</ele>
        <time>2025-02-09T12:52:35Z</time>
      </trkpt>
      <trkpt lat="45.632147630676627" lon="7.605643048882484">
        <ele>1903.8399999999999</ele>
        <time>2025-02-09T12:52:46Z</time>
      </trkpt>
      <trkpt lat="45.632070517167449" lon="7.605595858767629">
        <ele>1901.1300000000001</ele>
        <time>2025-02-09T12:52:54Z</time>
      </trkpt>
      <trkpt lat="45.631992062553763" lon="7.605593511834741">
        <ele>1898.1400000000001</ele>
        <time>2025-02-09T12:53:04Z</time>
      </trkpt>
      <trkpt lat="45.631943447515368" lon="7.605690406635404">
        <ele>1894.6199999999999</ele>
        <time>2025-02-09T12:53:15Z</time>
      </trkpt>
      <trkpt lat="45.631845463067293" lon="7.605675989761949">
        <ele>1891.1800000000001</ele>
        <time>2025-02-09T12:53:25Z</time>
      </trkpt>
      <trkpt lat="45.631749741733074" lon="7.605655873194337">
        <ele>1889.5899999999999</ele>
        <time>2025-02-09T12:53:34Z</time>
      </trkpt>
      <trkpt lat="45.631656786426902" lon="7.605687808245421">
        <ele>1887.6500000000001</ele>
        <time>2025-02-09T12:53:45Z</time>
      </trkpt>
      <trkpt lat="45.631611356511712" lon="7.605764670297504">
        <ele>1884</ele>
        <time>2025-02-09T12:53:57Z</time>
      </trkpt>
      <trkpt lat="45.631530387327075" lon="7.605823175981641">
        <ele>1881.1199999999999</ele>
        <time>2025-02-09T12:54:06Z</time>
      </trkpt>
      <trkpt lat="45.631433157250285" lon="7.605826864019036">
        <ele>1878.1300000000001</ele>
        <time>2025-02-09T12:54:17Z</time>
      </trkpt>
      <trkpt lat="45.631347075104713" lon="7.605892075225711">
        <ele>1874.97</ele>
        <time>2025-02-09T12:54:27Z</time>
      </trkpt>
      <trkpt lat="45.63125210814178" lon="7.605923088267446">
        <ele>1871.6600000000001</ele>
        <time>2025-02-09T12:54:38Z</time>
      </trkpt>
      <trkpt lat="45.631157476454973" lon="7.605929877609015">
        <ele>1868.52</ele>
        <time>2025-02-09T12:54:52Z</time>
      </trkpt>
      <trkpt lat="45.631112130358815" lon="7.60597606189549">
        <ele>1867.4200000000001</ele>
        <time>2025-02-09T12:56:50Z</time>
      </trkpt>
      <trkpt lat="45.631150435656309" lon="7.60590230114758">
        <ele>1868.05</ele>
        <time>2025-02-09T12:58:24Z</time>
      </trkpt>
      <trkpt lat="45.631122272461653" lon="7.605973882600665">
        <ele>1867.9400000000001</ele>
        <time>2025-02-09T12:59:39Z</time>
      </trkpt>
      <trkpt lat="45.631127888336778" lon="7.605961812660098">
        <ele>1868.0799999999999</ele>
        <time>2025-02-09T13:00:49Z</time>
      </trkpt>
      <trkpt lat="45.631109531968832" lon="7.605906156823039">
        <ele>1868.7</ele>
        <time>2025-02-09T13:01:57Z</time>
      </trkpt>
      <trkpt lat="45.631107771769166" lon="7.605919651687145">
        <ele>1867.04</ele>
        <time>2025-02-09T13:04:07Z</time>
      </trkpt>
      <trkpt lat="45.631026802584529" lon="7.605825271457434">
        <ele>1865.1500000000001</ele>
        <time>2025-02-09T13:04:16Z</time>
      </trkpt>
      <trkpt lat="45.630965111777186" lon="7.605729550123215">
        <ele>1862.0899999999999</ele>
        <time>2025-02-09T13:04:24Z</time>
      </trkpt>
      <trkpt lat="45.630901074036956" lon="7.60575226508081">
        <ele>1858.95</ele>
        <time>2025-02-09T13:04:37Z</time>
      </trkpt>
      <trkpt lat="45.630846591666341" lon="7.605779003351927">
        <ele>1855.5699999999999</ele>
        <time>2025-02-09T13:04:51Z</time>
      </trkpt>
      <trkpt lat="45.630817003548145" lon="7.605640785768628">
        <ele>1852.6800000000001</ele>
        <time>2025-02-09T13:05:01Z</time>
      </trkpt>
      <trkpt lat="45.630760174244642" lon="7.605716893449426">
        <ele>1849.3499999999999</ele>
        <time>2025-02-09T13:05:10Z</time>
      </trkpt>
      <trkpt lat="45.630686329677701" lon="7.605798533186317">
        <ele>1846.0599999999999</ele>
        <time>2025-02-09T13:05:20Z</time>
      </trkpt>
      <trkpt lat="45.630588345229626" lon="7.60580406524241">
        <ele>1841.6500000000001</ele>
        <time>2025-02-09T13:05:32Z</time>
      </trkpt>
      <trkpt lat="45.63050938770175" lon="7.605865085497499">
        <ele>1839.3399999999999</ele>
        <time>2025-02-09T13:05:42Z</time>
      </trkpt>
      <trkpt lat="45.630490863695741" lon="7.605980336666107">
        <ele>1836.3299999999999</ele>
        <time>2025-02-09T13:05:52Z</time>
      </trkpt>
      <trkpt lat="45.630508968606591" lon="7.60611629113555">
        <ele>1835.6900000000001</ele>
        <time>2025-02-09T13:06:01Z</time>
      </trkpt>
      <trkpt lat="45.630445014685392" lon="7.60620815679431">
        <ele>1834.1099999999999</ele>
        <time>2025-02-09T13:06:21Z</time>
      </trkpt>
      <trkpt lat="45.630350718274713" lon="7.606263980269432">
        <ele>1832.8699999999999</ele>
        <time>2025-02-09T13:06:29Z</time>
      </trkpt>
      <trkpt lat="45.630256505683064" lon="7.606232548132539">
        <ele>1830.7</ele>
        <time>2025-02-09T13:06:37Z</time>
      </trkpt>
      <trkpt lat="45.630164053291082" lon="7.606241600587964">
        <ele>1828.4000000000001</ele>
        <time>2025-02-09T13:06:46Z</time>
      </trkpt>
      <trkpt lat="45.630086688324809" lon="7.606207486242056">
        <ele>1824.8599999999999</ele>
        <time>2025-02-09T13:07:00Z</time>
      </trkpt>
      <trkpt lat="45.62999289482832" lon="7.606175886467099">
        <ele>1821.49</ele>
        <time>2025-02-09T13:07:11Z</time>
      </trkpt>
      <trkpt lat="45.629892395809293" lon="7.606162475422025">
        <ele>1819.51</ele>
        <time>2025-02-09T13:07:20Z</time>
      </trkpt>
      <trkpt lat="45.629791393876076" lon="7.60620086453855">
        <ele>1817.1900000000001</ele>
        <time>2025-02-09T13:07:30Z</time>
      </trkpt>
      <trkpt lat="45.629691984504461" lon="7.60624822229147">
        <ele>1813.8599999999999</ele>
        <time>2025-02-09T13:07:40Z</time>
      </trkpt>
      <trkpt lat="45.629602381959558" lon="7.606326844543219">
        <ele>1812.51</ele>
        <time>2025-02-09T13:07:49Z</time>
      </trkpt>
      <trkpt lat="45.629528453573585" lon="7.60642952285707">
        <ele>1810.6099999999999</ele>
        <time>2025-02-09T13:07:59Z</time>
      </trkpt>
      <trkpt lat="45.629449160769582" lon="7.606454752385616">
        <ele>1806.4200000000001</ele>
        <time>2025-02-09T13:08:13Z</time>
      </trkpt>
      <trkpt lat="45.629425104707479" lon="7.606340423226357">
        <ele>1803.9000000000001</ele>
        <time>2025-02-09T13:08:24Z</time>
      </trkpt>
      <trkpt lat="45.62946617603302" lon="7.606232464313507">
        <ele>1802.1600000000001</ele>
        <time>2025-02-09T13:08:32Z</time>
      </trkpt>
      <trkpt lat="45.629523759707808" lon="7.606112938374281">
        <ele>1801.03</ele>
        <time>2025-02-09T13:08:41Z</time>
      </trkpt>
      <trkpt lat="45.629586623981595" lon="7.606010595336556">
        <ele>1799.9100000000001</ele>
        <time>2025-02-09T13:08:49Z</time>
      </trkpt>
      <trkpt lat="45.629617553204298" lon="7.605892494320869">
        <ele>1799.3199999999999</ele>
        <time>2025-02-09T13:08:57Z</time>
      </trkpt>
      <trkpt lat="45.62959517352283" lon="7.605820409953594">
        <ele>1799.6800000000001</ele>
        <time>2025-02-09T13:09:33Z</time>
      </trkpt>
      <trkpt lat="45.629570866003633" lon="7.605828540399671">
        <ele>1798.8800000000001</ele>
        <time>2025-02-09T13:09:56Z</time>
      </trkpt>
      <trkpt lat="45.629448909312487" lon="7.605783361941576">
        <ele>1795.51</ele>
        <time>2025-02-09T13:10:09Z</time>
      </trkpt>
      <trkpt lat="45.629345644265413" lon="7.60575570166111">
        <ele>1792.24</ele>
        <time>2025-02-09T13:10:22Z</time>
      </trkpt>
      <trkpt lat="45.629272386431694" lon="7.60566727258265">
        <ele>1787.9000000000001</ele>
        <time>2025-02-09T13:10:40Z</time>
      </trkpt>
      <trkpt lat="45.629213629290462" lon="7.605654867365956">
        <ele>1784.1900000000001</ele>
        <time>2025-02-09T13:10:56Z</time>
      </trkpt>
      <trkpt lat="45.629158476367593" lon="7.605722509324551">
        <ele>1781.46</ele>
        <time>2025-02-09T13:11:13Z</time>
      </trkpt>
      <trkpt lat="45.629097120836377" lon="7.605703817680478">
        <ele>1777.98</ele>
        <time>2025-02-09T13:11:45Z</time>
      </trkpt>
      <trkpt lat="45.629113465547562" lon="7.605776991695166">
        <ele>1776.97</ele>
        <time>2025-02-09T13:12:10Z</time>
      </trkpt>
      <trkpt lat="45.629078848287463" lon="7.605876736342907">
        <ele>1772.72</ele>
        <time>2025-02-09T13:12:44Z</time>
      </trkpt>
      <trkpt lat="45.628972984850407" lon="7.605843544006348">
        <ele>1771.01</ele>
        <time>2025-02-09T13:13:15Z</time>
      </trkpt>
      <trkpt lat="45.628887908533216" lon="7.605786379426718">
        <ele>1767.5799999999999</ele>
        <time>2025-02-09T13:13:33Z</time>
      </trkpt>
      <trkpt lat="45.628837449476123" lon="7.605787385255098">
        <ele>1765.99</ele>
        <time>2025-02-09T13:13:46Z</time>
      </trkpt>
      <trkpt lat="45.628800485283136" lon="7.605884280055761">
        <ele>1765.01</ele>
        <time>2025-02-09T13:14:11Z</time>
      </trkpt>
      <trkpt lat="45.62875865958631" lon="7.606007158756256">
        <ele>1764.48</ele>
        <time>2025-02-09T13:14:20Z</time>
      </trkpt>
      <trkpt lat="45.628694035112858" lon="7.606107657775283">
        <ele>1763.3</ele>
        <time>2025-02-09T13:14:29Z</time>
      </trkpt>
      <trkpt lat="45.62861549668014" lon="7.606192566454411">
        <ele>1761.99</ele>
        <time>2025-02-09T13:14:38Z</time>
      </trkpt>
      <trkpt lat="45.628529079258442" lon="7.606273032724857">
        <ele>1760.75</ele>
        <time>2025-02-09T13:14:48Z</time>
      </trkpt>
      <trkpt lat="45.628453390672803" lon="7.606349727138877">
        <ele>1759.73</ele>
        <time>2025-02-09T13:14:58Z</time>
      </trkpt>
      <trkpt lat="45.628381054848433" lon="7.606467828154564">
        <ele>1758.9400000000001</ele>
        <time>2025-02-09T13:15:08Z</time>
      </trkpt>
      <trkpt lat="45.628344174474478" lon="7.606598921120167">
        <ele>1758.03</ele>
        <time>2025-02-09T13:15:16Z</time>
      </trkpt>
      <trkpt lat="45.628334200009704" lon="7.606748538091779">
        <ele>1756.9400000000001</ele>
        <time>2025-02-09T13:15:25Z</time>
      </trkpt>
      <trkpt lat="45.628358004614711" lon="7.606881726533175">
        <ele>1755.8699999999999</ele>
        <time>2025-02-09T13:15:33Z</time>
      </trkpt>
      <trkpt lat="45.628385078161955" lon="7.607015501707792">
        <ele>1754.99</ele>
        <time>2025-02-09T13:15:41Z</time>
      </trkpt>
      <trkpt lat="45.628408128395677" lon="7.607151959091425">
        <ele>1754.0599999999999</ele>
        <time>2025-02-09T13:15:49Z</time>
      </trkpt>
      <trkpt lat="45.628418019041419" lon="7.607283974066377">
        <ele>1753.0899999999999</ele>
        <time>2025-02-09T13:15:57Z</time>
      </trkpt>
      <trkpt lat="45.628429083153605" lon="7.607419844716787">
        <ele>1751.9300000000001</ele>
        <time>2025-02-09T13:16:06Z</time>
      </trkpt>
      <trkpt lat="45.628426987677813" lon="7.607559319585562">
        <ele>1750.8599999999999</ele>
        <time>2025-02-09T13:16:15Z</time>
      </trkpt>
      <trkpt lat="45.628403434529901" lon="7.607704326510429">
        <ele>1749.8499999999999</ele>
        <time>2025-02-09T13:16:24Z</time>
      </trkpt>
      <trkpt lat="45.628387928009033" lon="7.607838604599237">
        <ele>1748.9300000000001</ele>
        <time>2025-02-09T13:16:32Z</time>
      </trkpt>
      <trkpt lat="45.6283672247082" lon="7.607978247106075">
        <ele>1747.71</ele>
        <time>2025-02-09T13:16:41Z</time>
      </trkpt>
      <trkpt lat="45.628352472558618" lon="7.608105652034283">
        <ele>1746.8399999999999</ele>
        <time>2025-02-09T13:16:49Z</time>
      </trkpt>
      <trkpt lat="45.628345515578985" lon="7.608248395845294">
        <ele>1745.6300000000001</ele>
        <time>2025-02-09T13:16:58Z</time>
      </trkpt>
      <trkpt lat="45.628334702923894" lon="7.60839088819921">
        <ele>1744.26</ele>
        <time>2025-02-09T13:17:07Z</time>
      </trkpt>
      <trkpt lat="45.62833160161972" lon="7.608526675030589">
        <ele>1743.29</ele>
        <time>2025-02-09T13:17:15Z</time>
      </trkpt>
      <trkpt lat="45.628340151160955" lon="7.608669502660632">
        <ele>1742.1600000000001</ele>
        <time>2025-02-09T13:17:23Z</time>
      </trkpt>
      <trkpt lat="45.628352640196681" lon="7.608809228986502">
        <ele>1741.22</ele>
        <time>2025-02-09T13:17:31Z</time>
      </trkpt>
      <trkpt lat="45.628391867503524" lon="7.608933281153441">
        <ele>1740.3099999999999</ele>
        <time>2025-02-09T13:17:39Z</time>
      </trkpt>
      <trkpt lat="45.628345934674144" lon="7.609036210924387">
        <ele>1739.24</ele>
        <time>2025-02-09T13:17:47Z</time>
      </trkpt>
      <trkpt lat="45.628249794244766" lon="7.609020452946425">
        <ele>1738.4000000000001</ele>
        <time>2025-02-09T13:17:55Z</time>
      </trkpt>
      <trkpt lat="45.62818986363709" lon="7.608919618651271">
        <ele>1737.77</ele>
        <time>2025-02-09T13:18:03Z</time>
      </trkpt>
      <trkpt lat="45.62815273180604" lon="7.608784250915051">
        <ele>1737.0999999999999</ele>
        <time>2025-02-09T13:18:13Z</time>
      </trkpt>
      <trkpt lat="45.628117108717561" lon="7.608656007796526">
        <ele>1736.5899999999999</ele>
        <time>2025-02-09T13:18:22Z</time>
      </trkpt>
      <trkpt lat="45.628085508942604" lon="7.608531704172492">
        <ele>1735.99</ele>
        <time>2025-02-09T13:18:30Z</time>
      </trkpt>
      <trkpt lat="45.628053657710552" lon="7.608392648398876">
        <ele>1735.1099999999999</ele>
        <time>2025-02-09T13:18:39Z</time>
      </trkpt>
      <trkpt lat="45.628028763458133" lon="7.608247473835945">
        <ele>1733.9400000000001</ele>
        <time>2025-02-09T13:18:48Z</time>
      </trkpt>
      <trkpt lat="45.628028512001038" lon="7.608114285394549">
        <ele>1733.1300000000001</ele>
        <time>2025-02-09T13:18:56Z</time>
      </trkpt>
      <trkpt lat="45.628039240837097" lon="7.607971038669348">
        <ele>1732.54</ele>
        <time>2025-02-09T13:19:05Z</time>
      </trkpt>
      <trkpt lat="45.628056339919567" lon="7.607830641791225">
        <ele>1731.98</ele>
        <time>2025-02-09T13:19:14Z</time>
      </trkpt>
      <trkpt lat="45.628069499507546" lon="7.607685886323452">
        <ele>1731.25</ele>
        <time>2025-02-09T13:19:23Z</time>
      </trkpt>
      <trkpt lat="45.628068661317229" lon="7.607543477788568">
        <ele>1730.6500000000001</ele>
        <time>2025-02-09T13:19:33Z</time>
      </trkpt>
      <trkpt lat="45.628077546134591" lon="7.60743023827672">
        <ele>1729.9100000000001</ele>
        <time>2025-02-09T13:19:54Z</time>
      </trkpt>
      <trkpt lat="45.628054663538933" lon="7.607295624911785">
        <ele>1728.8299999999999</ele>
        <time>2025-02-09T13:20:03Z</time>
      </trkpt>
      <trkpt lat="45.62804183922708" lon="7.607162017375231">
        <ele>1727.47</ele>
        <time>2025-02-09T13:20:11Z</time>
      </trkpt>
      <trkpt lat="45.628026248887181" lon="7.607015250250697">
        <ele>1726.9200000000001</ele>
        <time>2025-02-09T13:20:20Z</time>
      </trkpt>
      <trkpt lat="45.628014095127583" lon="7.606877619400621">
        <ele>1726.1600000000001</ele>
        <time>2025-02-09T13:20:28Z</time>
      </trkpt>
      <trkpt lat="45.628009149804711" lon="7.606730852276087">
        <ele>1725.45</ele>
        <time>2025-02-09T13:20:37Z</time>
      </trkpt>
      <trkpt lat="45.628020381554961" lon="7.606587605550885">
        <ele>1724.96</ele>
        <time>2025-02-09T13:20:46Z</time>
      </trkpt>
      <trkpt lat="45.628033373504877" lon="7.606455506756902">
        <ele>1724.46</ele>
        <time>2025-02-09T13:20:54Z</time>
      </trkpt>
      <trkpt lat="45.628015603870153" lon="7.606330616399646">
        <ele>1723.8399999999999</ele>
        <time>2025-02-09T13:21:03Z</time>
      </trkpt>
      <trkpt lat="45.627930024638772" lon="7.606273116543889">
        <ele>1722.3</ele>
        <time>2025-02-09T13:21:12Z</time>
      </trkpt>
      <trkpt lat="45.627867411822081" lon="7.606362802907825">
        <ele>1720.79</ele>
        <time>2025-02-09T13:21:19Z</time>
      </trkpt>
      <trkpt lat="45.627848552539945" lon="7.606497667729855">
        <ele>1720.02</ele>
        <time>2025-02-09T13:21:27Z</time>
      </trkpt>
      <trkpt lat="45.627848217263818" lon="7.60663378983736">
        <ele>1718.9400000000001</ele>
        <time>2025-02-09T13:21:35Z</time>
      </trkpt>
      <trkpt lat="45.627856850624084" lon="7.606771169230342">
        <ele>1718.1900000000001</ele>
        <time>2025-02-09T13:21:43Z</time>
      </trkpt>
      <trkpt lat="45.627860706299543" lon="7.60690888389945">
        <ele>1717.4400000000001</ele>
        <time>2025-02-09T13:21:51Z</time>
      </trkpt>
      <trkpt lat="45.627861376851797" lon="7.607051879167557">
        <ele>1716.48</ele>
        <time>2025-02-09T13:21:59Z</time>
      </trkpt>
      <trkpt lat="45.627870848402381" lon="7.607190934941173">
        <ele>1715.6900000000001</ele>
        <time>2025-02-09T13:22:08Z</time>
      </trkpt>
      <trkpt lat="45.627849474549294" lon="7.607320686802268">
        <ele>1714.8499999999999</ele>
        <time>2025-02-09T13:22:15Z</time>
      </trkpt>
      <trkpt lat="45.627817204222083" lon="7.607441721484065">
        <ele>1714.05</ele>
        <time>2025-02-09T13:22:22Z</time>
      </trkpt>
      <trkpt lat="45.627778563648462" lon="7.607577173039317">
        <ele>1713</ele>
        <time>2025-02-09T13:22:30Z</time>
      </trkpt>
      <trkpt lat="45.627740593627095" lon="7.607711870223284">
        <ele>1711.6600000000001</ele>
        <time>2025-02-09T13:22:38Z</time>
      </trkpt>
      <trkpt lat="45.62770077958703" lon="7.607844723388553">
        <ele>1711.01</ele>
        <time>2025-02-09T13:22:46Z</time>
      </trkpt>
      <trkpt lat="45.627666749060154" lon="7.607966596260667">
        <ele>1709.8099999999999</ele>
        <time>2025-02-09T13:22:53Z</time>
      </trkpt>
      <trkpt lat="45.627629449591041" lon="7.608101712539792">
        <ele>1709.1400000000001</ele>
        <time>2025-02-09T13:23:01Z</time>
      </trkpt>
      <trkpt lat="45.627592150121927" lon="7.608220903202891">
        <ele>1708.3099999999999</ele>
        <time>2025-02-09T13:23:08Z</time>
      </trkpt>
      <trkpt lat="45.62755661085248" lon="7.608340429142118">
        <ele>1707.49</ele>
        <time>2025-02-09T13:23:15Z</time>
      </trkpt>
      <trkpt lat="45.627515874803066" lon="7.608472779393196">
        <ele>1706.6900000000001</ele>
        <time>2025-02-09T13:23:23Z</time>
      </trkpt>
      <trkpt lat="45.627468433231115" lon="7.608587695285678">
        <ele>1705.8699999999999</ele>
        <time>2025-02-09T13:23:32Z</time>
      </trkpt>
      <trkpt lat="45.627437252551317" lon="7.608719291165471">
        <ele>1704.8599999999999</ele>
        <time>2025-02-09T13:23:40Z</time>
      </trkpt>
      <trkpt lat="45.627415962517262" lon="7.608852731063962">
        <ele>1703.98</ele>
        <time>2025-02-09T13:23:48Z</time>
      </trkpt>
      <trkpt lat="45.627387464046478" lon="7.60898063890636">
        <ele>1702.79</ele>
        <time>2025-02-09T13:23:56Z</time>
      </trkpt>
      <trkpt lat="45.627347817644477" lon="7.609101673588157">
        <ele>1701.98</ele>
        <time>2025-02-09T13:24:04Z</time>
      </trkpt>
      <trkpt lat="45.62731278128922" lon="7.609157832339406">
        <ele>1701.53</ele>
        <time>2025-02-09T13:33:22Z</time>
      </trkpt>
      <trkpt lat="45.627294508740306" lon="7.609170908108354">
        <ele>1704.1199999999999</ele>
        <time>2025-02-09T13:42:04Z</time>
      </trkpt>
    </trkseg>
  </trk>

</gpx>